Darstellungsparameter: Aktuell verwendete Einstellungen:
Skalierung der Graphiken ... ?
xyx+y,   Skalierungsfaktor:      Skalierung: Modus: x, Faktor: 1
Darstellungszeitraum ... ?
Vom - - bis: - -   Zeitraum: 03.03.2020 - 31.03.2020
Min/Max/Avg-Anzeige ... ?
Zeige MMA aktuell
Zeige MMA Monat
Zeige MMA alles
Zeige --A aktuell
Zeige --A Monat
Zeige --A alles
Keine MMA-Anzeige
MMA:
Average (ber die Originaldaten)
MMA-Basis: 03.03.2020 - 31.03.2020
Quicknavigation für Darstellung... ?
Tage:      1T, 2T, 3T, 5T -1T -2T -3T -5T +1T +2T +3T +5T
Wochen: 1W, 2W, 3W -1W -2W -3W +1W +2W +3W
Monate: 1M, 3M, 6M -1M -3M -6M +1M +3M +6M
Jahre:    1J, 3J, 5J, 10J -1J -3J -5J -10J +1J +3J +5J +10J
Nutze für die Darstellung ... ?
Originaldaten oder ...
Mittelwerte Minima Maxima auf...
Stundenbasis Tagesbasis Wochenbasis
Monatsbasis Jahresbasis      Datenbasis: Mittelwerte auf Stundenbasis
Darstellen als:
Statistik (Auto) Statistik J:M      Darstellung:
Zur Graphik,    zurück zur Übersicht aller Sensoren.
 
Tabellarische Datenbersicht: ?
 
Sensor: Nr:Datum:Temp:Feuchte:
Aussen-T/F 1 03-03-2020 00:00:00 5.01667 C 44.5000 %
2 03-03-2020 01:00:00 4.76667 C 42.6667 %
3 03-03-2020 02:00:00 4.13333 C 41.6667 %
4 03-03-2020 03:00:00 3.41667 C 41.1667 %
5 03-03-2020 04:00:00 3.03333 C 41.8333 %
6 03-03-2020 05:00:00 2.63333 C 42.8333 %
7 03-03-2020 06:00:00 2.83333 C 42.0000 %
8 03-03-2020 07:00:00 2.61667 C 42.8333 %
9 03-03-2020 08:00:00 3.28333 C 40.8333 %
10 03-03-2020 09:00:00 3.75 C 39.5000 %
11 03-03-2020 10:00:00 5.15 C 35.3333 %
12 03-03-2020 11:00:00 5.38333 C 35.0000 %
13 03-03-2020 12:00:00 6.55 C 33.6667 %
14 03-03-2020 13:00:00 8.46667 C 28.5000 %
15 03-03-2020 14:00:00 5.21667 C 38.0000 %
16 03-03-2020 15:00:00 7.26667 C 34.0000 %
17 03-03-2020 16:00:00 8.43333 C 28.1667 %
18 03-03-2020 17:00:00 6.28333 C 34.0000 %
19 03-03-2020 18:00:00 3.91667 C 39.8333 %
20 03-03-2020 19:00:00 3.11667 C 41.0000 %
21 03-03-2020 20:00:00 1.53333 C 46.5000 %
22 03-03-2020 21:00:00 1.85 C 46.1667 %
23 03-03-2020 22:00:00 1.36667 C 46.8333 %
24 03-03-2020 23:00:00 2.41667 C 44.6667 %
25 04-03-2020 00:00:00 2.81667 C 42.0000 %
Sensor: Nr:Datum:Temp:Feuchte:
Aussen-T/F 26 04-03-2020 01:00:00 2.55 C 42.1667 %
27 04-03-2020 02:00:00 3.06667 C 41.1667 %
28 04-03-2020 03:00:00 2.91667 C 41.6667 %
29 04-03-2020 04:00:00 3.53333 C 40.5000 %
30 04-03-2020 05:00:00 3.21667 C 42.8333 %
31 04-03-2020 06:00:00 3.48333 C 42.0000 %
32 04-03-2020 07:00:00 3.85 C 40.8333 %
33 04-03-2020 08:00:00 3.66667 C 41.1667 %
34 04-03-2020 09:00:00 4.65 C 39.1667 %
35 04-03-2020 10:00:00 6.15 C 36.3333 %
36 04-03-2020 11:00:00 8.21667 C 32.8333 %
37 04-03-2020 12:00:00 9.76667 C 29.5000 %
38 04-03-2020 13:00:00 9.78333 C 27.5000 %
39 04-03-2020 14:00:00 9.73333 C 27.0000 %
40 04-03-2020 15:00:00 9.68333 C 27.6667 %
41 04-03-2020 16:00:00 10.73333 C 25.6667 %
42 04-03-2020 17:00:00 7.8 C 30.6667 %
43 04-03-2020 18:00:00 4.58333 C 38.5000 %
44 04-03-2020 19:00:00 3.96667 C 40.1667 %
45 04-03-2020 20:00:00 3.33333 C 41.6667 %
46 04-03-2020 21:00:00 3.15 C 42.0000 %
47 04-03-2020 22:00:00 2.75 C 45.1667 %
48 04-03-2020 23:00:00 3.55 C 43.6667 %
49 05-03-2020 00:00:00 3.65 C 46.6667 %
50 05-03-2020 01:00:00 3.46667 C 47.0000 %
Sensor: Nr:Datum:Temp:Feuchte:
Aussen-T/F 51 05-03-2020 02:00:00 3.75 C 44.5000 %
52 05-03-2020 03:00:00 4 C 41.8333 %
53 05-03-2020 04:00:00 3.85 C 43.3333 %
54 05-03-2020 05:00:00 3.85 C 44.0000 %
55 05-03-2020 06:00:00 4.01667 C 42.3333 %
56 05-03-2020 07:00:00 4.48333 C 41.5000 %
57 05-03-2020 08:00:00 5.01667 C 40.5000 %
58 05-03-2020 09:00:00 6.33333 C 38.3333 %
59 05-03-2020 10:00:00 6.46667 C 38.1667 %
60 05-03-2020 11:00:00 7.38333 C 37.1667 %
61 05-03-2020 12:00:00 7.13333 C 38.1667 %
62 05-03-2020 13:00:00 6.76667 C 41.3333 %
63 05-03-2020 14:00:00 6.33333 C 43.1667 %
64 05-03-2020 15:00:00 6.41667 C 45.0000 %
65 05-03-2020 16:00:00 6.46667 C 43.6667 %
66 05-03-2020 17:00:00 5.96667 C 45.5000 %
67 05-03-2020 18:00:00 5.76667 C 46.0000 %
68 05-03-2020 19:00:00 5.61667 C 46.0000 %
69 05-03-2020 20:00:00 5.98333 C 45.0000 %
70 05-03-2020 21:00:00 6.08333 C 45.0000 %
71 05-03-2020 22:00:00 6.06667 C 45.0000 %
72 05-03-2020 23:00:00 6.11667 C 44.8333 %
73 06-03-2020 00:00:00 6.23333 C 44.0000 %
74 06-03-2020 01:00:00 6.93333 C 42.3333 %
75 06-03-2020 02:00:00 6.58333 C 40.1667 %
Sensor: Nr:Datum:Temp:Feuchte:
Aussen-T/F 76 06-03-2020 03:00:00 6.03333 C 40.6667 %
77 06-03-2020 04:00:00 5.45 C 45.0000 %
78 06-03-2020 05:00:00 5.7 C 44.1667 %
79 06-03-2020 06:00:00 5.93333 C 44.6667 %
80 06-03-2020 07:00:00 5.91667 C 44.6667 %
81 06-03-2020 08:00:00 4.95 C 42.6667 %
82 06-03-2020 09:00:00 4.86667 C 42.3333 %
83 06-03-2020 10:00:00 4.78333 C 41.1667 %
84 06-03-2020 11:00:00 5.03333 C 40.3333 %
85 06-03-2020 12:00:00 4.53333 C 41.0000 %
86 06-03-2020 13:00:00 5.03333 C 40.1667 %
87 06-03-2020 14:00:00 5 C 40.5000 %
88 06-03-2020 15:00:00 5.75 C 38.3333 %
89 06-03-2020 16:00:00 6.11667 C 37.5000 %
90 06-03-2020 17:00:00 6.76667 C 37.1667 %
91 06-03-2020 18:00:00 6.36667 C 37.1667 %
92 06-03-2020 19:00:00 6.3 C 36.8333 %
93 06-03-2020 20:00:00 5.65 C 37.3333 %
94 06-03-2020 21:00:00 5.06667 C 38.0000 %
95 06-03-2020 22:00:00 5.11667 C 38.1667 %
96 06-03-2020 23:00:00 5.23333 C 37.5000 %
97 07-03-2020 00:00:00 5.08333 C 37.0000 %
98 07-03-2020 01:00:00 5.16667 C 37.8333 %
99 07-03-2020 02:00:00 5.15 C 38.0000 %
100 07-03-2020 03:00:00 4.7 C 39.6667 %
Sensor: Nr:Datum:Temp:Feuchte:
Aussen-T/F 101 07-03-2020 04:00:00 4.7 C 39.3333 %
102 07-03-2020 05:00:00 4.56667 C 39.0000 %
103 07-03-2020 06:00:00 4.55 C 39.1667 %
104 07-03-2020 07:00:00 4.21667 C 39.8333 %
105 07-03-2020 08:00:00 4.06667 C 42.5000 %
106 07-03-2020 09:00:00 5.75 C 36.5000 %
107 07-03-2020 10:00:00 6.5 C 35.3333 %
108 07-03-2020 11:00:00 7.96667 C 30.1667 %
109 07-03-2020 12:00:00 7.81667 C 28.8333 %
110 07-03-2020 13:00:00 9.26667 C 24.8333 %
111 07-03-2020 14:00:00 10.4 C 21.0000 %
112 07-03-2020 15:00:00 11 C 20.0000 %
113 07-03-2020 16:00:00 9.75 C 20.0000 %
114 07-03-2020 17:00:00 8.31667 C 23.5000 %
115 07-03-2020 18:00:00 5.63333 C 34.0000 %
116 07-03-2020 19:00:00 4.61667 C 36.6667 %
117 07-03-2020 20:00:00 4.46667 C 38.1667 %
118 07-03-2020 21:00:00 4.76667 C 38.1667 %
119 07-03-2020 22:00:00 5.53333 C 36.1667 %
120 07-03-2020 23:00:00 6.36667 C 34.5000 %
121 08-03-2020 00:00:00 6.75 C 34.8333 %
122 08-03-2020 01:00:00 6.85 C 34.8333 %
123 08-03-2020 02:00:00 7.03333 C 35.0000 %
124 08-03-2020 03:00:00 6.68333 C 35.5000 %
125 08-03-2020 04:00:00 6.96667 C 35.0000 %
Sensor: Nr:Datum:Temp:Feuchte:
Aussen-T/F 126 08-03-2020 05:00:00 6.68333 C 35.0000 %
127 08-03-2020 06:00:00 6.56667 C 35.8333 %
128 08-03-2020 07:00:00 7.83333 C 34.8333 %
129 08-03-2020 08:00:00 8.48333 C 34.1667 %
130 08-03-2020 09:00:00 9.45 C 33.0000 %
131 08-03-2020 10:00:00 10.76667 C 31.1667 %
132 08-03-2020 11:00:00 12.38333 C 26.8333 %
133 08-03-2020 12:00:00 13.31667 C 23.5000 %
134 08-03-2020 13:00:00 12.45 C 25.0000 %
135 08-03-2020 14:00:00 12.68333 C 24.6667 %
136 08-03-2020 15:00:00 12.33333 C 25.0000 %
137 08-03-2020 16:00:00 12.23333 C 25.5000 %
138 08-03-2020 17:00:00 12.03333 C 26.6667 %
139 08-03-2020 18:00:00 10.48333 C 31.8333 %
140 08-03-2020 19:00:00 9.61667 C 35.6667 %
141 08-03-2020 20:00:00 9.23333 C 36.6667 %
142 08-03-2020 21:00:00 9.18333 C 37.0000 %
143 08-03-2020 22:00:00 9.06667 C 37.0000 %
144 08-03-2020 23:00:00 8.06667 C 39.1667 %
145 09-03-2020 00:00:00 6.88333 C 42.8333 %
146 09-03-2020 01:00:00 6.81667 C 43.0000 %
147 09-03-2020 02:00:00 6.38333 C 44.3333 %
148 09-03-2020 03:00:00 6.31667 C 43.0000 %
149 09-03-2020 04:00:00 6 C 43.8333 %
150 09-03-2020 05:00:00 5.68333 C 43.5000 %
Sensor: Nr:Datum:Temp:Feuchte:
Aussen-T/F 151 09-03-2020 06:00:00 5.35 C 42.1667 %
152 09-03-2020 07:00:00 5.33333 C 42.0000 %
153 09-03-2020 08:00:00 5.98333 C 41.1667 %
154 09-03-2020 09:00:00 7.83333 C 37.1667 %
155 09-03-2020 10:00:00 8.36667 C 36.0000 %
156 09-03-2020 11:00:00 9.35 C 33.6667 %
157 09-03-2020 12:00:00 10.6 C 25.8333 %
158 09-03-2020 13:00:00 10.38333 C 29.0000 %
159 09-03-2020 14:00:00 11.91667 C 24.3333 %
160 09-03-2020 15:00:00 13.23333 C 20.0000 %
161 09-03-2020 16:00:00 12.33333 C 20.8333 %
162 09-03-2020 17:00:00 10.23333 C 23.8333 %
163 09-03-2020 18:00:00 8.68333 C 29.5000 %
164 09-03-2020 19:00:00 7.4 C 33.3333 %
165 09-03-2020 20:00:00 6.65 C 35.6667 %
166 09-03-2020 21:00:00 5.56667 C 37.8333 %
167 09-03-2020 22:00:00 5.51667 C 38.1667 %
168 09-03-2020 23:00:00 4.83333 C 39.8333 %
169 10-03-2020 00:00:00 5.2 C 40.1667 %
170 10-03-2020 01:00:00 6.21667 C 38.0000 %
171 10-03-2020 02:00:00 6.8 C 37.0000 %
172 10-03-2020 03:00:00 6.26667 C 39.0000 %
173 10-03-2020 04:00:00 5.7 C 40.5000 %
174 10-03-2020 05:00:00 5.18333 C 41.5000 %
175 10-03-2020 06:00:00 4.98333 C 43.0000 %
Sensor: Nr:Datum:Temp:Feuchte:
Aussen-T/F 176 10-03-2020 07:00:00 5.6 C 41.5000 %
177 10-03-2020 08:00:00 6.26667 C 40.8333 %
178 10-03-2020 09:00:00 6.78333 C 41.5000 %
179 10-03-2020 10:00:00 7.51667 C 41.0000 %
180 10-03-2020 11:00:00 8.46667 C 40.6667 %
181 10-03-2020 12:00:00 9.05 C 40.8333 %
182 10-03-2020 13:00:00 9.56667 C 40.8333 %
183 10-03-2020 14:00:00 10.6 C 39.8333 %
184 10-03-2020 15:00:00 11.93333 C 37.3333 %
185 10-03-2020 16:00:00 12.58333 C 36.5000 %
186 10-03-2020 17:00:00 12.6 C 37.1667 %
187 10-03-2020 18:00:00 12.35 C 38.0000 %
188 10-03-2020 19:00:00 12.45 C 38.0000 %
189 10-03-2020 20:00:00 12.8 C 37.8333 %
190 10-03-2020 21:00:00 13.11667 C 37.1667 %
191 10-03-2020 22:00:00 12.58333 C 39.8333 %
192 10-03-2020 23:00:00 12.86667 C 38.8333 %
193 11-03-2020 00:00:00 13.61667 C 36.0000 %
194 11-03-2020 01:00:00 13.25 C 37.3333 %
195 11-03-2020 02:00:00 13.25 C 37.5000 %
196 11-03-2020 03:00:00 13.26667 C 37.1667 %
197 11-03-2020 04:00:00 13.41667 C 36.8333 %
198 11-03-2020 05:00:00 13.05 C 37.1667 %
199 11-03-2020 06:00:00 13.28333 C 36.3333 %
200 11-03-2020 07:00:00 13.08333 C 36.1667 %
Sensor: Nr:Datum:Temp:Feuchte:
Aussen-T/F 201 11-03-2020 08:00:00 12.7 C 37.0000 %
202 11-03-2020 09:00:00 13.58333 C 35.6667 %
203 11-03-2020 10:00:00 14.11667 C 35.3333 %
204 11-03-2020 11:00:00 15.43333 C 33.6667 %
205 11-03-2020 12:00:00 16.31667 C 32.1667 %
206 11-03-2020 13:00:00 16.56667 C 31.3333 %
207 11-03-2020 14:00:00 16.11667 C 31.0000 %
208 11-03-2020 15:00:00 16.11667 C 31.5000 %
209 11-03-2020 16:00:00 14.71667 C 34.3333 %
210 11-03-2020 17:00:00 13.51667 C 36.8333 %
211 11-03-2020 18:00:00 13.43333 C 36.1667 %
212 11-03-2020 19:00:00 13.21667 C 36.5000 %
213 11-03-2020 20:00:00 13.5 C 36.0000 %
214 11-03-2020 21:00:00 13.63333 C 35.6667 %
215 11-03-2020 22:00:00 13.91667 C 34.6667 %
216 11-03-2020 23:00:00 13.8 C 34.0000 %
217 12-03-2020 00:00:00 13.7 C 34.0000 %
218 12-03-2020 01:00:00 13.81667 C 34.0000 %
219 12-03-2020 02:00:00 13.61667 C 33.5000 %
220 12-03-2020 03:00:00 13.36667 C 32.1667 %
221 12-03-2020 04:00:00 13.03333 C 32.0000 %
222 12-03-2020 05:00:00 12.55 C 33.6667 %
223 12-03-2020 06:00:00 12.03333 C 34.5000 %
224 12-03-2020 07:00:00 11.68333 C 36.1667 %
225 12-03-2020 08:00:00 10.43333 C 39.6667 %
Sensor: Nr:Datum:Temp:Feuchte:
Aussen-T/F 226 12-03-2020 09:00:00 10.85 C 36.3333 %
227 12-03-2020 10:00:00 11.51667 C 33.3333 %
228 12-03-2020 11:00:00 11.81667 C 24.0000 %
229 12-03-2020 12:00:00 12.31667 C 20.0000 %
230 12-03-2020 13:00:00 12.4 C 20.0000 %
231 12-03-2020 14:00:00 12.46667 C 20.0000 %
232 12-03-2020 15:00:00 11.78333 C 20.0000 %
233 12-03-2020 16:00:00 11.76667 C 20.0000 %
234 12-03-2020 17:00:00 11.15 C 20.3333 %
235 12-03-2020 18:00:00 8.93333 C 30.1667 %
236 12-03-2020 19:00:00 6.91667 C 35.1667 %
237 12-03-2020 20:00:00 6.93333 C 35.5000 %
238 12-03-2020 21:00:00 7.25 C 35.1667 %
239 12-03-2020 22:00:00 7.38333 C 35.0000 %
240 12-03-2020 23:00:00 6.66667 C 34.1667 %
241 13-03-2020 00:00:00 6.2 C 32.1667 %
242 13-03-2020 01:00:00 5.25 C 33.3333 %
243 13-03-2020 02:00:00 5.03333 C 34.1667 %
244 13-03-2020 03:00:00 5.13333 C 34.0000 %
245 13-03-2020 04:00:00 5.05 C 34.5000 %
246 13-03-2020 05:00:00 5.4 C 34.0000 %
247 13-03-2020 06:00:00 5.46667 C 34.3333 %
248 13-03-2020 07:00:00 5.56667 C 35.0000 %
249 13-03-2020 08:00:00 6.05 C 34.8333 %
250 13-03-2020 09:00:00 6.88333 C 33.6667 %
Sensor: Nr:Datum:Temp:Feuchte:
Aussen-T/F 251 13-03-2020 10:00:00 7.85 C 32.8333 %
252 13-03-2020 11:00:00 8.15 C 33.1667 %
253 13-03-2020 12:00:00 9.16667 C 30.5000 %
254 13-03-2020 13:00:00 9.28333 C 31.0000 %
255 13-03-2020 14:00:00 9.58333 C 29.8333 %
256 13-03-2020 15:00:00 9.96667 C 27.3333 %
257 13-03-2020 16:00:00 9.53333 C 28.3333 %
258 13-03-2020 17:00:00 9.25 C 30.0000 %
259 13-03-2020 18:00:00 8.33333 C 31.3333 %
260 13-03-2020 19:00:00 7.33333 C 34.6667 %
261 13-03-2020 20:00:00 6.53333 C 36.3333 %
262 13-03-2020 21:00:00 5.85 C 37.8333 %
263 13-03-2020 22:00:00 5.56667 C 39.1667 %
264 13-03-2020 23:00:00 5.38333 C 39.8333 %
265 14-03-2020 00:00:00 4 C 42.0000 %
266 14-03-2020 01:00:00 2.36667 C 46.5000 %
267 14-03-2020 02:00:00 3.05 C 45.6667 %
268 14-03-2020 03:00:00 1.56667 C 47.5000 %
269 14-03-2020 04:00:00 1.5 C 48.3333 %
270 14-03-2020 05:00:00 0.98333 C 49.0000 %
271 14-03-2020 06:00:00 0.55 C 49.6667 %
272 14-03-2020 07:00:00 0.71667 C 49.5000 %
273 14-03-2020 08:00:00 1.78333 C 48.5000 %
274 14-03-2020 09:00:00 3.91667 C 44.3333 %
275 14-03-2020 10:00:00 7.05 C 38.5000 %
Sensor: Nr:Datum:Temp:Feuchte:
Aussen-T/F 276 14-03-2020 11:00:00 10.36667 C 32.3333 %
277 14-03-2020 12:00:00 12.21667 C 27.1667 %
278 14-03-2020 13:00:00 12.98333 C 22.5000 %
279 14-03-2020 14:00:00 12.73333 C 21.0000 %
280 14-03-2020 15:00:00 11.85 C 20.8333 %
281 14-03-2020 16:00:00 10.33333 C 25.5000 %
282 14-03-2020 17:00:00 9.8 C 27.1667 %
283 14-03-2020 18:00:00 6.76667 C 34.6667 %
284 14-03-2020 19:00:00 5.33333 C 38.8333 %
285 14-03-2020 20:00:00 5.45 C 39.0000 %
286 14-03-2020 21:00:00 5.38333 C 38.8333 %
287 14-03-2020 22:00:00 5 C 39.1667 %
288 14-03-2020 23:00:00 5.66667 C 39.5000 %
289 15-03-2020 00:00:00 5.78333 C 38.5000 %
290 15-03-2020 01:00:00 5.21667 C 39.6667 %
291 15-03-2020 02:00:00 4.9 C 40.0000 %
292 15-03-2020 03:00:00 4.08333 C 40.5000 %
293 15-03-2020 04:00:00 3.71667 C 41.0000 %
294 15-03-2020 05:00:00 3.2 C 41.0000 %
295 15-03-2020 06:00:00 3.21667 C 41.3333 %
296 15-03-2020 07:00:00 3.46667 C 41.3333 %
297 15-03-2020 08:00:00 5.81667 C 38.6667 %
298 15-03-2020 09:00:00 7.95 C 35.5000 %
299 15-03-2020 10:00:00 10.8 C 30.3333 %
300 15-03-2020 11:00:00 14.95 C 21.3333 %
Sensor: Nr:Datum:Temp:Feuchte:
Aussen-T/F 301 15-03-2020 12:00:00 14.71667 C 20.0000 %
302 15-03-2020 13:00:00 16.78333 C 20.0000 %
303 15-03-2020 14:00:00 16.18333 C 20.0000 %
304 15-03-2020 15:00:00 19.68333 C 20.0000 %
305 15-03-2020 16:00:00 19.43333 C 20.0000 %
306 15-03-2020 17:00:00 14.71667 C 20.5000 %
307 15-03-2020 18:00:00 10.98333 C 27.0000 %
308 15-03-2020 19:00:00 9.2 C 30.5000 %
309 15-03-2020 20:00:00 8.15 C 32.1667 %
310 15-03-2020 21:00:00 7.06667 C 35.1667 %
311 15-03-2020 22:00:00 5.05 C 38.6667 %
312 15-03-2020 23:00:00 4.45 C 40.0000 %
313 16-03-2020 00:00:00 3.53333 C 41.3333 %
314 16-03-2020 01:00:00 2.91667 C 42.8333 %
315 16-03-2020 02:00:00 2.66667 C 44.5000 %
316 16-03-2020 03:00:00 2.05 C 45.0000 %
317 16-03-2020 04:00:00 1.73333 C 46.0000 %
318 16-03-2020 05:00:00 1.43333 C 46.1667 %
319 16-03-2020 06:00:00 0.73333 C 48.0000 %
320 16-03-2020 07:00:00 1.3 C 48.0000 %
321 16-03-2020 08:00:00 2.43333 C 46.5000 %
322 16-03-2020 09:00:00 4.38333 C 44.1667 %
323 16-03-2020 10:00:00 9.05 C 38.1667 %
324 16-03-2020 11:00:00 15.06667 C 27.5000 %
325 16-03-2020 12:00:00 17.26667 C 23.1667 %
Sensor: Nr:Datum:Temp:Feuchte:
Aussen-T/F 326 16-03-2020 13:00:00 21 C 20.0000 %
327 16-03-2020 14:00:00 19.68333 C 20.0000 %
328 16-03-2020 15:00:00 19.11667 C 20.0000 %
329 16-03-2020 16:00:00 19.91667 C 20.0000 %
330 16-03-2020 17:00:00 17.38333 C 20.6667 %
331 16-03-2020 18:00:00 13.53333 C 29.1667 %
332 16-03-2020 19:00:00 11.81667 C 33.1667 %
333 16-03-2020 20:00:00 10.58333 C 36.3333 %
334 16-03-2020 21:00:00 10.01667 C 37.6667 %
335 16-03-2020 22:00:00 9.31667 C 38.5000 %
336 16-03-2020 23:00:00 9.45 C 39.1667 %
337 17-03-2020 00:00:00 9.31667 C 39.5000 %
338 17-03-2020 01:00:00 8.95 C 40.5000 %
339 17-03-2020 02:00:00 8.78333 C 41.0000 %
340 17-03-2020 03:00:00 8.33333 C 41.1667 %
341 17-03-2020 04:00:00 9 C 40.5000 %
342 17-03-2020 05:00:00 8.53333 C 40.8333 %
343 17-03-2020 06:00:00 8.11667 C 41.0000 %
344 17-03-2020 07:00:00 9.38333 C 39.1667 %
345 17-03-2020 08:00:00 9.95 C 37.5000 %
346 17-03-2020 09:00:00 10.48333 C 37.0000 %
347 17-03-2020 10:00:00 11.6 C 34.8333 %
348 17-03-2020 11:00:00 13.98333 C 30.1667 %
349 17-03-2020 12:00:00 16.11667 C 25.3333 %
350 17-03-2020 13:00:00 19.21667 C 20.0000 %
Sensor: Nr:Datum:Temp:Feuchte:
Aussen-T/F 351 17-03-2020 14:00:00 19.08333 C 20.0000 %
352 17-03-2020 15:00:00 23.28333 C 20.0000 %
353 17-03-2020 16:00:00 22.01667 C 20.0000 %
354 17-03-2020 17:00:00 16.98333 C 21.0000 %
355 17-03-2020 18:00:00 13 C 29.3333 %
356 17-03-2020 19:00:00 11.06667 C 33.5000 %
357 17-03-2020 20:00:00 10.03333 C 36.0000 %
358 17-03-2020 21:00:00 8.25 C 39.0000 %
359 17-03-2020 22:00:00 6.93333 C 41.1667 %
360 17-03-2020 23:00:00 6.23333 C 42.3333 %
361 18-03-2020 00:00:00 5.9 C 43.6667 %
362 18-03-2020 01:00:00 5.51667 C 44.6667 %
363 18-03-2020 02:00:00 4.65 C 45.3333 %
364 18-03-2020 03:00:00 4.01667 C 46.3333 %
365 18-03-2020 04:00:00 3.7 C 47.0000 %
366 18-03-2020 05:00:00 3.4 C 47.3333 %
367 18-03-2020 06:00:00 3.18333 C 47.1667 %
368 18-03-2020 07:00:00 3.9 C 46.6667 %
369 18-03-2020 08:00:00 4.95 C 45.8333 %
370 18-03-2020 09:00:00 8.91667 C 42.3333 %
371 18-03-2020 10:00:00 11.7 C 37.0000 %
372 18-03-2020 11:00:00 13.78333 C 33.0000 %
373 18-03-2020 12:00:00 17.68333 C 26.1667 %
374 18-03-2020 13:00:00 18.66667 C 20.6667 %
375 18-03-2020 14:00:00 17.58333 C 20.1667 %
Sensor: Nr:Datum:Temp:Feuchte:
Aussen-T/F 376 18-03-2020 15:00:00 18 C 20.1667 %
377 18-03-2020 16:00:00 16.33333 C 20.8333 %
378 18-03-2020 17:00:00 15.96667 C 21.0000 %
379 18-03-2020 18:00:00 13.63333 C 27.1667 %
380 18-03-2020 19:00:00 11.1 C 33.5000 %
381 18-03-2020 20:00:00 10.13333 C 35.8333 %
382 18-03-2020 21:00:00 9.13333 C 37.5000 %
383 18-03-2020 22:00:00 8.1 C 39.8333 %
384 18-03-2020 23:00:00 8.28333 C 40.0000 %
385 19-03-2020 00:00:00 9 C 38.1667 %
386 19-03-2020 01:00:00 8.96667 C 38.1667 %
387 19-03-2020 02:00:00 8.58333 C 39.0000 %
388 19-03-2020 03:00:00 8.48333 C 39.1667 %
389 19-03-2020 04:00:00 8.48333 C 39.3333 %
390 19-03-2020 05:00:00 8.61667 C 38.8333 %
391 19-03-2020 06:00:00 8.21667 C 39.6667 %
392 19-03-2020 07:00:00 8.8 C 39.0000 %
393 19-03-2020 08:00:00 10.1 C 36.6667 %
394 19-03-2020 09:00:00 11.7 C 34.6667 %
395 19-03-2020 10:00:00 13.73333 C 30.5000 %
396 19-03-2020 11:00:00 16.48333 C 26.5000 %
397 19-03-2020 12:00:00 17.01667 C 24.0000 %
398 19-03-2020 13:00:00 21.41667 C 20.0000 %
399 19-03-2020 14:00:00 18.95 C 20.0000 %
400 19-03-2020 15:00:00 19.66667 C 20.0000 %
Sensor: Nr:Datum:Temp:Feuchte:
Aussen-T/F 401 19-03-2020 16:00:00 18.98333 C 20.0000 %
402 19-03-2020 17:00:00 17.05 C 20.0000 %
403 19-03-2020 18:00:00 14.15 C 27.3333 %
404 19-03-2020 19:00:00 11.91667 C 32.0000 %
405 19-03-2020 20:00:00 11.68333 C 33.8333 %
406 19-03-2020 21:00:00 11.05 C 35.1667 %
407 19-03-2020 22:00:00 9.66667 C 38.1667 %
408 19-03-2020 23:00:00 9.25 C 38.8333 %
409 20-03-2020 00:00:00 8.96 C 39.4000 %
410 20-03-2020 01:00:00 8.61667 C 40.0000 %
411 20-03-2020 02:00:00 7.61667 C 40.6667 %
412 20-03-2020 03:00:00 7.21667 C 42.0000 %
413 20-03-2020 04:00:00 7.4 C 41.8333 %
414 20-03-2020 05:00:00 6.31667 C 43.3333 %
415 20-03-2020 06:00:00 5.11667 C 45.5000 %
416 20-03-2020 07:00:00 5.5 C 46.0000 %
417 20-03-2020 08:00:00 6.98333 C 43.8333 %
418 20-03-2020 09:00:00 9.41667 C 41.0000 %
419 20-03-2020 10:00:00 11.36667 C 37.3333 %
420 20-03-2020 11:00:00 14.13333 C 33.0000 %
421 20-03-2020 12:00:00 15.13333 C 30.6667 %
422 20-03-2020 13:00:00 15.15 C 30.1667 %
423 20-03-2020 14:00:00 16.93333 C 26.1667 %
424 20-03-2020 15:00:00 17.73333 C 25.0000 %
425 20-03-2020 16:00:00 15.98333 C 25.8333 %
Sensor: Nr:Datum:Temp:Feuchte:
Aussen-T/F 426 20-03-2020 17:00:00 14.13333 C 28.8333 %
427 20-03-2020 18:00:00 11.8 C 33.5000 %
428 20-03-2020 19:00:00 11.03333 C 34.5000 %
429 20-03-2020 20:00:00 10.28333 C 35.0000 %
430 20-03-2020 21:00:00 9.41667 C 35.1667 %
431 20-03-2020 22:00:00 8.26667 C 36.0000 %
432 20-03-2020 23:00:00 7.86667 C 35.3333 %
433 21-03-2020 00:00:00 7.41667 C 34.0000 %
434 21-03-2020 01:00:00 6.61667 C 35.0000 %
435 21-03-2020 02:00:00 5.06667 C 41.5000 %
436 21-03-2020 03:00:00 4.45 C 44.5000 %
437 21-03-2020 04:00:00 4.1 C 45.1667 %
438 21-03-2020 05:00:00 3.93333 C 46.5000 %
439 21-03-2020 06:00:00 3.98333 C 47.0000 %
440 21-03-2020 07:00:00 4.18333 C 47.0000 %
441 21-03-2020 08:00:00 4.58333 C 46.3333 %
442 21-03-2020 09:00:00 5.31667 C 43.0000 %
443 21-03-2020 10:00:00 6.48333 C 39.3333 %
444 21-03-2020 11:00:00 7.55 C 34.8333 %
445 21-03-2020 12:00:00 8 C 31.5000 %
446 21-03-2020 13:00:00 8.43333 C 28.3333 %
447 21-03-2020 14:00:00 9.4 C 25.3333 %
448 21-03-2020 15:00:00 10.33333 C 20.0000 %
449 21-03-2020 16:00:00 11.2 C 20.0000 %
450 21-03-2020 17:00:00 8.25 C 20.0000 %
Sensor: Nr:Datum:Temp:Feuchte:
Aussen-T/F 451 21-03-2020 18:00:00 6.38333 C 22.6667 %
452 21-03-2020 19:00:00 4.76667 C 29.0000 %
453 21-03-2020 20:00:00 3.7 C 31.1667 %
454 21-03-2020 21:00:00 3.05 C 32.0000 %
455 21-03-2020 22:00:00 2.48333 C 33.1667 %
456 21-03-2020 23:00:00 1.83333 C 34.5000 %
457 22-03-2020 00:00:00 1.1 C 36.3333 %
458 22-03-2020 01:00:00 1.18333 C 35.1667 %
459 22-03-2020 02:00:00 0.46667 C 37.0000 %
460 22-03-2020 03:00:00 -0.05 C 38.0000 %
461 22-03-2020 04:00:00 -0.06667 C 37.5000 %
462 22-03-2020 05:00:00 -0.46667 C 37.6667 %
463 22-03-2020 06:00:00 -0.41667 C 37.5000 %
464 22-03-2020 07:00:00 -0.21667 C 36.6667 %
465 22-03-2020 08:00:00 0.36667 C 35.3333 %
466 22-03-2020 09:00:00 1.85 C 30.3333 %
467 22-03-2020 10:00:00 4.16667 C 21.6667 %
468 22-03-2020 11:00:00 6.36667 C 20.0000 %
469 22-03-2020 12:00:00 7.51667 C 20.0000 %
470 22-03-2020 13:00:00 10.98333 C 20.0000 %
471 22-03-2020 14:00:00 12.23333 C 20.0000 %
472 22-03-2020 15:00:00 14.46667 C 20.0000 %
473 22-03-2020 16:00:00 13.9 C 20.0000 %
474 22-03-2020 17:00:00 9.75 C 20.0000 %
475 22-03-2020 18:00:00 7.65 C 20.0000 %
Sensor: Nr:Datum:Temp:Feuchte:
Aussen-T/F 476 22-03-2020 19:00:00 4.58333 C 23.6667 %
477 22-03-2020 20:00:00 3.25 C 27.1667 %
478 22-03-2020 21:00:00 2.23333 C 28.8333 %
479 22-03-2020 22:00:00 1.75 C 29.3333 %
480 22-03-2020 23:00:00 0.63333 C 32.5000 %
481 23-03-2020 00:00:00 -0.35 C 34.5000 %
482 23-03-2020 01:00:00 -0.81667 C 35.1667 %
483 23-03-2020 02:00:00 -1.23333 C 35.0000 %
484 23-03-2020 03:00:00 -1.75 C 35.0000 %
485 23-03-2020 04:00:00 -2.1 C 35.1667 %
486 23-03-2020 05:00:00 -2.5 C 35.8333 %
487 23-03-2020 06:00:00 -2.85 C 36.0000 %
488 23-03-2020 07:00:00 -2.63333 C 35.5000 %
489 23-03-2020 08:00:00 -0.86667 C 29.3333 %
490 23-03-2020 09:00:00 0.78333 C 21.0000 %
491 23-03-2020 10:00:00 3.45 C 20.0000 %
492 23-03-2020 11:00:00 6.03333 C 20.0000 %
493 23-03-2020 12:00:00 7.75 C 20.0000 %
494 23-03-2020 13:00:00 10.7 C 20.0000 %
495 23-03-2020 14:00:00 12.35 C 20.0000 %
496 23-03-2020 15:00:00 14.23333 C 20.0000 %
497 23-03-2020 16:00:00 14.11667 C 20.0000 %
498 23-03-2020 17:00:00 9.3 C 20.0000 %
499 23-03-2020 18:00:00 6.66667 C 20.0000 %
500 23-03-2020 19:00:00 3.61667 C 20.0000 %
Sensor: Nr:Datum:Temp:Feuchte:
Aussen-T/F 501 23-03-2020 20:00:00 2.5 C 20.0000 %
502 23-03-2020 21:00:00 1 C 26.6667 %
503 23-03-2020 22:00:00 -0.76667 C 34.1667 %
504 23-03-2020 23:00:00 -1.68333 C 36.5000 %
505 24-03-2020 00:00:00 -2.23333 C 36.8333 %
506 24-03-2020 01:00:00 -2.63333 C 37.5000 %
507 24-03-2020 02:00:00 -3.03333 C 38.0000 %
508 24-03-2020 03:00:00 -3.61667 C 38.3333 %
509 24-03-2020 04:00:00 -3.91667 C 38.1667 %
510 24-03-2020 05:00:00 -4.33333 C 38.3333 %
511 24-03-2020 06:00:00 -4.63333 C 38.5000 %
512 24-03-2020 07:00:00 -4.2 C 39.0000 %
513 24-03-2020 08:00:00 -2.9 C 37.8333 %
514 24-03-2020 09:00:00 0.1 C 30.8333 %
515 24-03-2020 10:00:00 4.15 C 20.0000 %
516 24-03-2020 11:00:00 6.81667 C 20.0000 %
517 24-03-2020 12:00:00 8.5 C 20.0000 %
518 24-03-2020 13:00:00 11.75 C 20.0000 %
519 24-03-2020 14:00:00 12.63333 C 20.0000 %
520 24-03-2020 15:00:00 14.55 C 20.0000 %
521 24-03-2020 16:00:00 13.83333 C 20.0000 %
522 24-03-2020 17:00:00 10.01667 C 20.0000 %
523 24-03-2020 18:00:00 7.56667 C 20.0000 %
524 24-03-2020 19:00:00 4.26667 C 20.0000 %
525 24-03-2020 20:00:00 3.25 C 20.0000 %
Sensor: Nr:Datum:Temp:Feuchte:
Aussen-T/F 526 24-03-2020 21:00:00 2.38333 C 20.0000 %
527 24-03-2020 22:00:00 0.71667 C 24.1667 %
528 24-03-2020 23:00:00 -1.25 C 30.6667 %
529 25-03-2020 00:00:00 -1.75 C 31.0000 %
530 25-03-2020 01:00:00 -1.18333 C 29.6667 %
531 25-03-2020 02:00:00 -1.38333 C 27.5000 %
532 25-03-2020 03:00:00 -2 C 28.6667 %
533 25-03-2020 04:00:00 -3.18333 C 33.5000 %
534 25-03-2020 05:00:00 -2.96667 C 32.0000 %
535 25-03-2020 06:00:00 -4.3 C 36.0000 %
536 25-03-2020 07:00:00 -3.95 C 36.8333 %
537 25-03-2020 08:00:00 -2.13333 C 34.0000 %
538 25-03-2020 09:00:00 -0.2 C 30.8333 %
539 25-03-2020 10:00:00 3.91667 C 20.0000 %
540 25-03-2020 11:00:00 6.66667 C 20.0000 %
541 25-03-2020 12:00:00 8.63333 C 20.0000 %
542 25-03-2020 13:00:00 12.68333 C 20.0000 %
543 25-03-2020 14:00:00 12.55 C 20.0000 %
544 25-03-2020 15:00:00 14.43333 C 20.0000 %
545 25-03-2020 16:00:00 14.06667 C 20.0000 %
546 25-03-2020 17:00:00 11.11667 C 20.0000 %
547 25-03-2020 18:00:00 8.95 C 20.0000 %
548 25-03-2020 19:00:00 5.55 C 20.0000 %
549 25-03-2020 20:00:00 4.23333 C 20.0000 %
550 25-03-2020 21:00:00 4.23333 C 20.0000 %
Sensor: Nr:Datum:Temp:Feuchte:
Aussen-T/F 551 25-03-2020 22:00:00 2.41667 C 20.0000 %
552 25-03-2020 23:00:00 1.68333 C 21.1667 %
553 26-03-2020 00:00:00 1.11667 C 22.3333 %
554 26-03-2020 01:00:00 0.61667 C 24.0000 %
555 26-03-2020 02:00:00 0.55 C 21.6667 %
556 26-03-2020 03:00:00 -0.15 C 24.6667 %
557 26-03-2020 04:00:00 -0.33333 C 25.8333 %
558 26-03-2020 05:00:00 -0.58333 C 27.6667 %
559 26-03-2020 06:00:00 -0.9 C 28.8333 %
560 26-03-2020 07:00:00 -0.36667 C 28.6667 %
561 26-03-2020 08:00:00 1.11667 C 24.0000 %
562 26-03-2020 09:00:00 3.01667 C 20.0000 %
563 26-03-2020 10:00:00 5.26667 C 20.0000 %
564 26-03-2020 11:00:00 7.48333 C 20.0000 %
565 26-03-2020 12:00:00 9.26667 C 20.0000 %
566 26-03-2020 13:00:00 11.55 C 20.0000 %
567 26-03-2020 14:00:00 13.1 C 20.0000 %
568 26-03-2020 15:00:00 15.2 C 20.0000 %
569 26-03-2020 16:00:00 13.73333 C 20.0000 %
570 26-03-2020 17:00:00 11.01667 C 20.0000 %
571 26-03-2020 18:00:00 9.78333 C 20.0000 %
572 26-03-2020 19:00:00 6.98333 C 20.6667 %
573 26-03-2020 20:00:00 5.51667 C 25.5000 %
574 26-03-2020 21:00:00 4.5 C 29.6667 %
575 26-03-2020 22:00:00 4.51667 C 30.0000 %
Sensor: Nr:Datum:Temp:Feuchte:
Aussen-T/F 576 26-03-2020 23:00:00 4.11667 C 30.3333 %
577 27-03-2020 00:00:00 3.86667 C 30.8333 %
578 27-03-2020 01:00:00 2.83333 C 35.3333 %
579 27-03-2020 02:00:00 2.66667 C 35.3333 %
580 27-03-2020 03:00:00 2.45 C 35.3333 %
581 27-03-2020 04:00:00 1.81667 C 36.8333 %
582 27-03-2020 05:00:00 0.41667 C 40.5000 %
583 27-03-2020 06:00:00 -0.41667 C 42.8333 %
584 27-03-2020 07:00:00 0.35 C 42.6667 %
585 27-03-2020 08:00:00 1.8 C 40.3333 %
586 27-03-2020 09:00:00 3.96667 C 36.3333 %
587 27-03-2020 10:00:00 7.73333 C 29.0000 %
588 27-03-2020 11:00:00 12.46667 C 20.0000 %
589 27-03-2020 12:00:00 14.06667 C 20.0000 %
590 27-03-2020 13:00:00 17.15 C 20.0000 %
591 27-03-2020 14:00:00 18.18333 C 20.0000 %
592 27-03-2020 15:00:00 18.88333 C 20.0000 %
593 27-03-2020 16:00:00 18.2 C 20.0000 %
594 27-03-2020 17:00:00 16.05 C 20.0000 %
595 27-03-2020 18:00:00 13.86667 C 20.0000 %
596 27-03-2020 19:00:00 11.08333 C 20.6667 %
597 27-03-2020 20:00:00 8.8 C 27.8333 %
598 27-03-2020 21:00:00 7 C 32.3333 %
599 27-03-2020 22:00:00 5.93333 C 34.8333 %
600 27-03-2020 23:00:00 5.26667 C 36.1667 %
Sensor: Nr:Datum:Temp:Feuchte:
Aussen-T/F 601 28-03-2020 00:00:00 4.81667 C 38.0000 %
602 28-03-2020 01:00:00 4.16667 C 39.3333 %
603 28-03-2020 02:00:00 3.46667 C 41.1667 %
604 28-03-2020 03:00:00 2.6 C 42.6667 %
605 28-03-2020 04:00:00 1.91667 C 45.0000 %
606 28-03-2020 05:00:00 1.41667 C 45.5000 %
607 28-03-2020 06:00:00 1.15 C 46.1667 %
608 28-03-2020 07:00:00 1.81667 C 46.3333 %
609 28-03-2020 08:00:00 3.06667 C 44.6667 %
610 28-03-2020 09:00:00 6.06667 C 40.5000 %
611 28-03-2020 10:00:00 10.46667 C 32.3333 %
612 28-03-2020 11:00:00 15.3 C 21.8333 %
613 28-03-2020 12:00:00 17.53333 C 20.0000 %
614 28-03-2020 13:00:00 20.38333 C 20.0000 %
615 28-03-2020 14:00:00 22.58333 C 20.0000 %
616 28-03-2020 15:00:00 20.51667 C 20.0000 %
617 28-03-2020 16:00:00 19.96667 C 20.0000 %
618 28-03-2020 17:00:00 16.55 C 20.0000 %
619 28-03-2020 18:00:00 13.78333 C 20.0000 %
620 28-03-2020 19:00:00 11.51667 C 20.0000 %
621 28-03-2020 20:00:00 9.9 C 20.0000 %
622 28-03-2020 21:00:00 8.46667 C 22.6667 %
623 28-03-2020 22:00:00 8.13333 C 25.1667 %
624 28-03-2020 23:00:00 7.03333 C 31.0000 %
625 29-03-2020 00:00:00 6.45 C 32.8333 %
Sensor: Nr:Datum:Temp:Feuchte:
Aussen-T/F 626 29-03-2020 01:00:00 6.15 C 31.6667 %
627 29-03-2020 02:00:00 5.21667 C 31.3333 %
628 29-03-2020 04:00:00 4.31667 C 31.1667 %
629 29-03-2020 05:00:00 4.03333 C 31.6667 %
630 29-03-2020 06:00:00 2.96667 C 32.6667 %
631 29-03-2020 07:00:00 3.56667 C 34.5000 %
632 29-03-2020 08:00:00 4.01667 C 33.6667 %
633 29-03-2020 09:00:00 4.35 C 32.5000 %
634 29-03-2020 10:00:00 5.68333 C 30.0000 %
635 29-03-2020 11:00:00 6.26667 C 25.0000 %
636 29-03-2020 12:00:00 5.86667 C 26.3333 %
637 29-03-2020 13:00:00 7.05 C 22.1667 %
638 29-03-2020 14:00:00 7 C 20.0000 %
639 29-03-2020 15:00:00 7.53333 C 20.0000 %
640 29-03-2020 16:00:00 6.83333 C 20.0000 %
641 29-03-2020 17:00:00 7 C 20.8333 %
642 29-03-2020 18:00:00 5.6 C 28.8333 %
643 29-03-2020 19:00:00 3.48333 C 39.5000 %
644 29-03-2020 20:00:00 3.11667 C 40.8333 %
645 29-03-2020 21:00:00 3.71667 C 37.8333 %
646 29-03-2020 22:00:00 3.65 C 36.0000 %
647 29-03-2020 23:00:00 3.3 C 33.8333 %
648 30-03-2020 00:00:00 1.71667 C 34.8333 %
649 30-03-2020 01:00:00 0.15 C 37.1667 %
650 30-03-2020 02:00:00 -1.35 C 38.8333 %
Sensor: Nr:Datum:Temp:Feuchte:
Aussen-T/F 651 30-03-2020 03:00:00 -1.85 C 39.3333 %
652 30-03-2020 04:00:00 -2.25 C 39.0000 %
653 30-03-2020 05:00:00 -2.76667 C 38.1667 %
654 30-03-2020 06:00:00 -3.56667 C 39.0000 %
655 30-03-2020 07:00:00 -4 C 39.6667 %
656 30-03-2020 08:00:00 -3.66667 C 39.3333 %
657 30-03-2020 09:00:00 -2.51667 C 37.1667 %
658 30-03-2020 10:00:00 -0.83333 C 33.0000 %
659 30-03-2020 11:00:00 2.4 C 20.5000 %
660 30-03-2020 12:00:00 5.51667 C 20.0000 %
661 30-03-2020 13:00:00 6.33333 C 20.0000 %
662 30-03-2020 14:00:00 9.06667 C 20.0000 %
663 30-03-2020 15:00:00 12.26667 C 20.0000 %
664 30-03-2020 16:00:00 13.18333 C 20.0000 %
665 30-03-2020 17:00:00 11.73333 C 20.0000 %
666 30-03-2020 18:00:00 7.98333 C 20.0000 %
667 30-03-2020 19:00:00 6.33333 C 20.0000 %
668 30-03-2020 20:00:00 3.23333 C 29.8333 %
669 30-03-2020 21:00:00 4.15 C 29.6667 %
670 30-03-2020 22:00:00 3.93333 C 31.6667 %
671 30-03-2020 23:00:00 4.16667 C 30.8333 %
672 31-03-2020 00:00:00 4.25 C 30.6667 %
673 31-03-2020 01:00:00 3.95 C 35.3333 %
674 31-03-2020 02:00:00 3.43333 C 39.3333 %
675 31-03-2020 03:00:00 2.4 C 42.1667 %
Sensor: Nr:Datum:Temp:Feuchte:
Aussen-T/F 676 31-03-2020 04:00:00 3.15 C 41.6667 %
677 31-03-2020 05:00:00 2.65 C 42.5000 %
678 31-03-2020 06:00:00 1.76667 C 44.8333 %
679 31-03-2020 07:00:00 2.08333 C 44.6667 %
680 31-03-2020 08:00:00 3.35 C 41.5000 %
681 31-03-2020 09:00:00 4.03333 C 36.1667 %
682 31-03-2020 10:00:00 4.5 C 33.8333 %
683 31-03-2020 11:00:00 4.9 C 30.8333 %
684 31-03-2020 12:00:00 7.15 C 22.0000 %
685 31-03-2020 13:00:00 7.56667 C 20.0000 %
686 31-03-2020 14:00:00 10.95 C 20.0000 %
687 31-03-2020 15:00:00 13.38333 C 20.0000 %
688 31-03-2020 16:00:00 14.96667 C 20.0000 %
689 31-03-2020 17:00:00 14.45 C 20.0000 %
690 31-03-2020 18:00:00 9.76667 C 20.0000 %
691 31-03-2020 19:00:00 8.18333 C 20.0000 %
692 31-03-2020 20:00:00 4.91667 C 20.0000 %
693 31-03-2020 21:00:00 3.53333 C 21.0000 %
694 31-03-2020 22:00:00 2.4 C 26.3333 %
695 31-03-2020 23:00:00 1.41667 C 30.8333 %
Sensor: Nr:Datum:Temp:Feuchte:
G-T/H 1 03-03-2020 00:00:00 9.9 C 75.0000 %
2 03-03-2020 01:00:00 9.9 C 75.0000 %
3 03-03-2020 02:00:00 9.9 C 75.0000 %
4 03-03-2020 03:00:00 9.88333 C 74.3333 %
5 03-03-2020 04:00:00 9.8 C 74.0000 %
6 03-03-2020 05:00:00 9.76667 C 74.0000 %
7 03-03-2020 06:00:00 9.68333 C 74.0000 %
8 03-03-2020 07:00:00 9.63333 C 73.0000 %
9 03-03-2020 08:00:00 9.58333 C 73.0000 %
10 03-03-2020 09:00:00 9.5 C 73.0000 %
11 03-03-2020 10:00:00 9.5 C 73.0000 %
12 03-03-2020 11:00:00 9.46667 C 73.0000 %
13 03-03-2020 12:00:00 9.4 C 73.0000 %
14 03-03-2020 13:00:00 9.41667 C 73.6667 %
15 03-03-2020 14:00:00 9.48333 C 74.0000 %
16 03-03-2020 15:00:00 9.43333 C 74.0000 %
17 03-03-2020 16:00:00 9.46667 C 73.8333 %
18 03-03-2020 17:00:00 9.31667 C 71.1667 %
19 03-03-2020 18:00:00 9.4 C 72.0000 %
20 03-03-2020 19:00:00 9.38333 C 72.6667 %
21 03-03-2020 20:00:00 9.31667 C 73.0000 %
22 03-03-2020 21:00:00 9.3 C 72.0000 %
23 03-03-2020 22:00:00 9.25 C 72.0000 %
24 03-03-2020 23:00:00 9.2 C 72.0000 %
25 04-03-2020 00:00:00 9.1 C 72.0000 %
Sensor: Nr:Datum:Temp:Feuchte:
G-T/H 26 04-03-2020 01:00:00 9.05 C 72.0000 %
27 04-03-2020 02:00:00 9 C 72.0000 %
28 04-03-2020 03:00:00 8.93333 C 72.6667 %
29 04-03-2020 04:00:00 8.9 C 73.0000 %
30 04-03-2020 05:00:00 8.8 C 73.0000 %
31 04-03-2020 06:00:00 8.78333 C 73.3333 %
32 04-03-2020 07:00:00 8.71667 C 74.0000 %
33 04-03-2020 08:00:00 8.7 C 74.0000 %
34 04-03-2020 09:00:00 8.7 C 74.0000 %
35 04-03-2020 10:00:00 8.68333 C 74.0000 %
36 04-03-2020 11:00:00 8.7 C 74.0000 %
37 04-03-2020 12:00:00 8.73333 C 74.0000 %
38 04-03-2020 13:00:00 8.81667 C 74.0000 %
39 04-03-2020 14:00:00 8.91667 C 74.3333 %
40 04-03-2020 15:00:00 9 C 74.0000 %
41 04-03-2020 16:00:00 9.1 C 74.0000 %
42 04-03-2020 17:00:00 9.16667 C 74.0000 %
43 04-03-2020 18:00:00 9.2 C 74.0000 %
44 04-03-2020 19:00:00 9.2 C 74.0000 %
45 04-03-2020 20:00:00 9.2 C 74.0000 %
46 04-03-2020 21:00:00 9.2 C 74.0000 %
47 04-03-2020 22:00:00 9.2 C 73.0000 %
48 04-03-2020 23:00:00 9.2 C 73.0000 %
49 05-03-2020 00:00:00 9.15 C 73.0000 %
50 05-03-2020 01:00:00 9.1 C 73.0000 %
Sensor: Nr:Datum:Temp:Feuchte:
G-T/H 51 05-03-2020 02:00:00 9.1 C 73.0000 %
52 05-03-2020 03:00:00 9.05 C 73.0000 %
53 05-03-2020 04:00:00 9.01667 C 73.0000 %
54 05-03-2020 05:00:00 9 C 73.0000 %
55 05-03-2020 06:00:00 9 C 73.0000 %
56 05-03-2020 07:00:00 9 C 73.0000 %
57 05-03-2020 08:00:00 9 C 73.8333 %
58 05-03-2020 09:00:00 9 C 74.0000 %
59 05-03-2020 10:00:00 9 C 74.0000 %
60 05-03-2020 11:00:00 9 C 74.0000 %
61 05-03-2020 12:00:00 9.05 C 74.0000 %
62 05-03-2020 13:00:00 9.1 C 74.0000 %
63 05-03-2020 14:00:00 9.18333 C 74.0000 %
64 05-03-2020 15:00:00 9.2 C 74.0000 %
65 05-03-2020 16:00:00 9.26667 C 74.8333 %
66 05-03-2020 17:00:00 9.3 C 75.0000 %
67 05-03-2020 18:00:00 9.3 C 75.0000 %
68 05-03-2020 19:00:00 9.31667 C 75.0000 %
69 05-03-2020 20:00:00 9.4 C 75.0000 %
70 05-03-2020 21:00:00 9.4 C 75.0000 %
71 05-03-2020 22:00:00 9.41667 C 75.0000 %
72 05-03-2020 23:00:00 9.45 C 75.0000 %
73 06-03-2020 00:00:00 9.46667 C 75.0000 %
74 06-03-2020 01:00:00 9.5 C 75.0000 %
75 06-03-2020 02:00:00 9.5 C 75.0000 %
Sensor: Nr:Datum:Temp:Feuchte:
G-T/H 76 06-03-2020 03:00:00 9.5 C 75.0000 %
77 06-03-2020 04:00:00 9.5 C 75.0000 %
78 06-03-2020 05:00:00 9.5 C 75.0000 %
79 06-03-2020 06:00:00 9.5 C 75.0000 %
80 06-03-2020 07:00:00 9.5 C 75.0000 %
81 06-03-2020 08:00:00 9.5 C 75.0000 %
82 06-03-2020 09:00:00 9.5 C 75.0000 %
83 06-03-2020 10:00:00 9.5 C 75.0000 %
84 06-03-2020 11:00:00 9.5 C 75.0000 %
85 06-03-2020 12:00:00 9.5 C 75.0000 %
86 06-03-2020 13:00:00 9.5 C 75.0000 %
87 06-03-2020 14:00:00 9.5 C 75.0000 %
88 06-03-2020 15:00:00 9.5 C 75.0000 %
89 06-03-2020 16:00:00 9.5 C 75.0000 %
90 06-03-2020 17:00:00 9.5 C 75.0000 %
91 06-03-2020 18:00:00 9.5 C 75.0000 %
92 06-03-2020 19:00:00 9.5 C 75.0000 %
93 06-03-2020 20:00:00 9.5 C 75.0000 %
94 06-03-2020 21:00:00 9.45 C 75.0000 %
95 06-03-2020 22:00:00 9.43333 C 74.8333 %
96 06-03-2020 23:00:00 9.4 C 74.0000 %
97 07-03-2020 00:00:00 9.4 C 74.0000 %
98 07-03-2020 01:00:00 9.35 C 74.0000 %
99 07-03-2020 02:00:00 9.3 C 74.0000 %
100 07-03-2020 03:00:00 9.3 C 74.0000 %
Sensor: Nr:Datum:Temp:Feuchte:
G-T/H 101 07-03-2020 04:00:00 9.3 C 74.0000 %
102 07-03-2020 05:00:00 9.3 C 74.0000 %
103 07-03-2020 06:00:00 9.2 C 74.0000 %
104 07-03-2020 07:00:00 9.2 C 74.0000 %
105 07-03-2020 08:00:00 9.2 C 74.0000 %
106 07-03-2020 09:00:00 9.2 C 74.0000 %
107 07-03-2020 10:00:00 9.2 C 74.0000 %
108 07-03-2020 11:00:00 9.23333 C 74.0000 %
109 07-03-2020 12:00:00 9.36667 C 74.0000 %
110 07-03-2020 13:00:00 9.3 C 74.0000 %
111 07-03-2020 14:00:00 9.36667 C 74.0000 %
112 07-03-2020 15:00:00 9.45 C 74.0000 %
113 07-03-2020 16:00:00 9.5 C 74.0000 %
114 07-03-2020 17:00:00 9.55 C 74.1667 %
115 07-03-2020 18:00:00 9.55 C 75.0000 %
116 07-03-2020 19:00:00 9.6 C 74.1667 %
117 07-03-2020 20:00:00 9.6 C 74.0000 %
118 07-03-2020 21:00:00 9.6 C 74.0000 %
119 07-03-2020 22:00:00 9.6 C 74.0000 %
120 07-03-2020 23:00:00 9.6 C 74.0000 %
121 08-03-2020 00:00:00 9.6 C 74.0000 %
122 08-03-2020 01:00:00 9.6 C 74.5000 %
123 08-03-2020 02:00:00 9.6 C 75.0000 %
124 08-03-2020 03:00:00 9.6 C 75.0000 %
125 08-03-2020 04:00:00 9.6 C 75.0000 %
Sensor: Nr:Datum:Temp:Feuchte:
G-T/H 126 08-03-2020 05:00:00 9.6 C 75.0000 %
127 08-03-2020 06:00:00 9.6 C 75.0000 %
128 08-03-2020 07:00:00 9.6 C 75.0000 %
129 08-03-2020 08:00:00 9.6 C 75.0000 %
130 08-03-2020 09:00:00 9.6 C 75.0000 %
131 08-03-2020 10:00:00 9.68333 C 75.0000 %
132 08-03-2020 11:00:00 9.73333 C 75.0000 %
133 08-03-2020 12:00:00 9.85 C 75.0000 %
134 08-03-2020 13:00:00 9.98333 C 74.1667 %
135 08-03-2020 14:00:00 10.08333 C 74.0000 %
136 08-03-2020 15:00:00 10.18333 C 74.0000 %
137 08-03-2020 16:00:00 10.28333 C 74.0000 %
138 08-03-2020 17:00:00 10.41667 C 74.0000 %
139 08-03-2020 18:00:00 10.48333 C 74.8333 %
140 08-03-2020 19:00:00 10.53333 C 75.0000 %
141 08-03-2020 20:00:00 10.6 C 75.0000 %
142 08-03-2020 21:00:00 10.66667 C 75.0000 %
143 08-03-2020 22:00:00 10.7 C 75.0000 %
144 08-03-2020 23:00:00 10.7 C 75.0000 %
145 09-03-2020 00:00:00 10.7 C 75.0000 %
146 09-03-2020 01:00:00 10.7 C 75.0000 %
147 09-03-2020 02:00:00 10.7 C 75.0000 %
148 09-03-2020 03:00:00 10.7 C 75.0000 %
149 09-03-2020 04:00:00 10.7 C 75.0000 %
150 09-03-2020 05:00:00 10.66667 C 75.0000 %
Sensor: Nr:Datum:Temp:Feuchte:
G-T/H 151 09-03-2020 06:00:00 10.6 C 75.0000 %
152 09-03-2020 07:00:00 10.51667 C 75.0000 %
153 09-03-2020 08:00:00 10.5 C 74.1667 %
154 09-03-2020 09:00:00 10.45 C 74.0000 %
155 09-03-2020 10:00:00 10.4 C 74.0000 %
156 09-03-2020 11:00:00 10.4 C 74.0000 %
157 09-03-2020 12:00:00 10.4 C 74.0000 %
158 09-03-2020 13:00:00 10.46667 C 74.0000 %
159 09-03-2020 14:00:00 10.5 C 74.0000 %
160 09-03-2020 15:00:00 10.5 C 73.5000 %
161 09-03-2020 16:00:00 10.5 C 72.0000 %
162 09-03-2020 17:00:00 10.58333 C 72.0000 %
163 09-03-2020 18:00:00 10.6 C 72.5000 %
164 09-03-2020 19:00:00 10.58333 C 73.0000 %
165 09-03-2020 20:00:00 10.6 C 73.0000 %
166 09-03-2020 21:00:00 10.53333 C 73.0000 %
167 09-03-2020 22:00:00 10.46667 C 73.0000 %
168 09-03-2020 23:00:00 10.4 C 73.0000 %
169 10-03-2020 00:00:00 10.35 C 72.1667 %
170 10-03-2020 01:00:00 10.26667 C 72.0000 %
171 10-03-2020 02:00:00 10.2 C 71.5000 %
172 10-03-2020 03:00:00 10.13333 C 71.0000 %
173 10-03-2020 04:00:00 10.1 C 71.3333 %
174 10-03-2020 05:00:00 10.1 C 72.0000 %
175 10-03-2020 06:00:00 10.1 C 72.0000 %
Sensor: Nr:Datum:Temp:Feuchte:
G-T/H 176 10-03-2020 07:00:00 10.06667 C 72.0000 %
177 10-03-2020 08:00:00 10 C 72.8333 %
178 10-03-2020 09:00:00 10 C 73.0000 %
179 10-03-2020 10:00:00 10 C 73.0000 %
180 10-03-2020 11:00:00 10 C 73.0000 %
181 10-03-2020 12:00:00 10.03333 C 73.0000 %
182 10-03-2020 13:00:00 10.08333 C 73.8333 %
183 10-03-2020 14:00:00 10.11667 C 74.0000 %
184 10-03-2020 15:00:00 10.21667 C 74.0000 %
185 10-03-2020 16:00:00 10.35 C 74.0000 %
186 10-03-2020 17:00:00 10.43333 C 74.6667 %
187 10-03-2020 18:00:00 10.5 C 75.0000 %
188 10-03-2020 19:00:00 10.58333 C 75.0000 %
189 10-03-2020 20:00:00 10.65 C 75.0000 %
190 10-03-2020 21:00:00 10.76667 C 75.0000 %
191 10-03-2020 22:00:00 10.8 C 75.8333 %
192 10-03-2020 23:00:00 10.88333 C 76.0000 %
193 11-03-2020 00:00:00 10.98333 C 75.1667 %
194 11-03-2020 01:00:00 11.01667 C 75.0000 %
195 11-03-2020 02:00:00 11.1 C 75.0000 %
196 11-03-2020 03:00:00 11.13333 C 75.1667 %
197 11-03-2020 04:00:00 11.21667 C 76.0000 %
198 11-03-2020 05:00:00 11.25 C 76.0000 %
199 11-03-2020 06:00:00 11.33333 C 76.0000 %
200 11-03-2020 07:00:00 11.4 C 76.0000 %
Sensor: Nr:Datum:Temp:Feuchte:
G-T/H 201 11-03-2020 08:00:00 11.46667 C 76.0000 %
202 11-03-2020 09:00:00 11.5 C 76.0000 %
203 11-03-2020 10:00:00 11.6 C 76.0000 %
204 11-03-2020 11:00:00 11.68333 C 76.0000 %
205 11-03-2020 12:00:00 11.76667 C 76.0000 %
206 11-03-2020 13:00:00 11.85 C 76.6667 %
207 11-03-2020 14:00:00 11.96667 C 76.3333 %
208 11-03-2020 15:00:00 12.05 C 76.0000 %
209 11-03-2020 16:00:00 12.11667 C 76.0000 %
210 11-03-2020 17:00:00 12.18333 C 76.0000 %
211 11-03-2020 18:00:00 12.2 C 76.0000 %
212 11-03-2020 19:00:00 12.21667 C 76.0000 %
213 11-03-2020 20:00:00 12.3 C 76.0000 %
214 11-03-2020 21:00:00 12.3 C 76.0000 %
215 11-03-2020 22:00:00 12.33333 C 76.0000 %
216 11-03-2020 23:00:00 12.33333 C 76.0000 %
217 12-03-2020 00:00:00 12.36667 C 76.0000 %
218 12-03-2020 01:00:00 12.4 C 76.0000 %
219 12-03-2020 02:00:00 12.4 C 76.0000 %
220 12-03-2020 03:00:00 12.4 C 76.0000 %
221 12-03-2020 04:00:00 12.4 C 76.0000 %
222 12-03-2020 05:00:00 12.4 C 76.0000 %
223 12-03-2020 06:00:00 12.4 C 76.0000 %
224 12-03-2020 07:00:00 12.4 C 76.0000 %
225 12-03-2020 08:00:00 12.4 C 76.0000 %
Sensor: Nr:Datum:Temp:Feuchte:
G-T/H 226 12-03-2020 09:00:00 12.4 C 76.0000 %
227 12-03-2020 10:00:00 12.4 C 75.6667 %
228 12-03-2020 11:00:00 12.4 C 74.3333 %
229 12-03-2020 12:00:00 12.36667 C 69.8333 %
230 12-03-2020 13:00:00 12.3 C 67.0000 %
231 12-03-2020 14:00:00 12.3 C 65.5000 %
232 12-03-2020 15:00:00 12.3 C 65.8333 %
233 12-03-2020 16:00:00 12.3 C 67.0000 %
234 12-03-2020 17:00:00 12.28333 C 64.3333 %
235 12-03-2020 18:00:00 12.21667 C 64.8333 %
236 12-03-2020 19:00:00 12.18333 C 67.3333 %
237 12-03-2020 20:00:00 12.1 C 66.6667 %
238 12-03-2020 21:00:00 12.01667 C 66.5000 %
239 12-03-2020 22:00:00 12.03333 C 68.3333 %
240 12-03-2020 23:00:00 11.95 C 68.8333 %
241 13-03-2020 00:00:00 11.81667 C 67.3333 %
242 13-03-2020 01:00:00 11.7 C 66.1667 %
243 13-03-2020 02:00:00 11.55 C 65.6667 %
244 13-03-2020 03:00:00 11.43333 C 65.0000 %
245 13-03-2020 04:00:00 11.33333 C 65.0000 %
246 13-03-2020 05:00:00 11.16667 C 65.0000 %
247 13-03-2020 06:00:00 11.06667 C 65.0000 %
248 13-03-2020 07:00:00 10.96667 C 65.3333 %
249 13-03-2020 08:00:00 10.93333 C 66.5000 %
250 13-03-2020 09:00:00 10.9 C 68.0000 %
Sensor: Nr:Datum:Temp:Feuchte:
G-T/H 251 13-03-2020 10:00:00 10.85 C 68.8333 %
252 13-03-2020 11:00:00 10.83333 C 69.0000 %
253 13-03-2020 12:00:00 10.86667 C 69.5000 %
254 13-03-2020 13:00:00 10.9 C 70.0000 %
255 13-03-2020 14:00:00 10.9 C 70.0000 %
256 13-03-2020 15:00:00 10.95 C 70.0000 %
257 13-03-2020 16:00:00 11 C 69.5000 %
258 13-03-2020 17:00:00 11 C 69.3333 %
259 13-03-2020 18:00:00 11 C 70.0000 %
260 13-03-2020 19:00:00 11 C 70.0000 %
261 13-03-2020 20:00:00 11 C 70.0000 %
262 13-03-2020 21:00:00 10.98333 C 70.1667 %
263 13-03-2020 22:00:00 10.95 C 70.5000 %
264 13-03-2020 23:00:00 10.9 C 71.0000 %
265 14-03-2020 00:00:00 10.86667 C 71.0000 %
266 14-03-2020 01:00:00 10.78333 C 71.0000 %
267 14-03-2020 02:00:00 10.71667 C 71.0000 %
268 14-03-2020 03:00:00 10.66667 C 70.6667 %
269 14-03-2020 04:00:00 10.51667 C 69.8333 %
270 14-03-2020 05:00:00 10.35 C 68.8333 %
271 14-03-2020 06:00:00 10.2 C 68.0000 %
272 14-03-2020 07:00:00 10.1 C 67.6667 %
273 14-03-2020 08:00:00 10 C 67.3333 %
274 14-03-2020 09:00:00 10 C 68.1667 %
275 14-03-2020 10:00:00 9.96667 C 69.3333 %
Sensor: Nr:Datum:Temp:Feuchte:
G-T/H 276 14-03-2020 11:00:00 9.98333 C 70.3333 %
277 14-03-2020 12:00:00 10.1 C 70.0000 %
278 14-03-2020 13:00:00 10.08333 C 70.0000 %
279 14-03-2020 14:00:00 10.16667 C 70.8333 %
280 14-03-2020 15:00:00 10.2 C 71.0000 %
281 14-03-2020 16:00:00 10.3 C 71.0000 %
282 14-03-2020 17:00:00 10.36667 C 71.0000 %
283 14-03-2020 18:00:00 10.4 C 71.0000 %
284 14-03-2020 19:00:00 10.4 C 71.0000 %
285 14-03-2020 20:00:00 10.4 C 71.0000 %
286 14-03-2020 21:00:00 10.4 C 71.0000 %
287 14-03-2020 22:00:00 10.4 C 71.0000 %
288 14-03-2020 23:00:00 10.4 C 71.0000 %
289 15-03-2020 00:00:00 10.4 C 71.0000 %
290 15-03-2020 01:00:00 10.35 C 71.0000 %
291 15-03-2020 02:00:00 10.31667 C 71.0000 %
292 15-03-2020 03:00:00 10.25 C 71.0000 %
293 15-03-2020 04:00:00 10.16667 C 70.5000 %
294 15-03-2020 05:00:00 10.1 C 69.5000 %
295 15-03-2020 06:00:00 10 C 69.0000 %
296 15-03-2020 07:00:00 10 C 69.0000 %
297 15-03-2020 08:00:00 10 C 70.0000 %
298 15-03-2020 09:00:00 9.93333 C 70.8333 %
299 15-03-2020 10:00:00 9.96667 C 71.3333 %
300 15-03-2020 11:00:00 10.13333 C 70.6667 %
Sensor: Nr:Datum:Temp:Feuchte:
G-T/H 301 15-03-2020 12:00:00 10.76667 C 64.8333 %
302 15-03-2020 13:00:00 11.26667 C 59.8333 %
303 15-03-2020 14:00:00 11.7 C 56.5000 %
304 15-03-2020 15:00:00 12.1 C 53.0000 %
305 15-03-2020 16:00:00 12.28333 C 51.1667 %
306 15-03-2020 17:00:00 11.93333 C 55.6667 %
307 15-03-2020 18:00:00 11.73333 C 59.6667 %
308 15-03-2020 19:00:00 11.63333 C 61.6667 %
309 15-03-2020 20:00:00 11.55 C 63.1667 %
310 15-03-2020 21:00:00 11.5 C 64.0000 %
311 15-03-2020 22:00:00 11.45 C 64.6667 %
312 15-03-2020 23:00:00 11.38333 C 65.0000 %
313 16-03-2020 00:00:00 11.25 C 64.5000 %
314 16-03-2020 01:00:00 11.13333 C 64.0000 %
315 16-03-2020 02:00:00 11.03333 C 63.0000 %
316 16-03-2020 03:00:00 10.88333 C 64.0000 %
317 16-03-2020 04:00:00 10.75 C 63.8333 %
318 16-03-2020 05:00:00 10.63333 C 63.0000 %
319 16-03-2020 06:00:00 10.46667 C 63.0000 %
320 16-03-2020 07:00:00 10.35 C 63.0000 %
321 16-03-2020 08:00:00 10.21667 C 63.3333 %
322 16-03-2020 09:00:00 10.2 C 64.5000 %
323 16-03-2020 10:00:00 10.15 C 65.6667 %
324 16-03-2020 11:00:00 10.18333 C 66.5000 %
325 16-03-2020 12:00:00 10.26667 C 67.0000 %
Sensor: Nr:Datum:Temp:Feuchte:
G-T/H 326 16-03-2020 13:00:00 10.38333 C 67.5000 %
327 16-03-2020 14:00:00 10.48333 C 68.0000 %
328 16-03-2020 15:00:00 10.61667 C 68.0000 %
329 16-03-2020 16:00:00 10.75 C 69.0000 %
330 16-03-2020 17:00:00 10.85 C 69.0000 %
331 16-03-2020 18:00:00 10.96667 C 69.0000 %
332 16-03-2020 19:00:00 11 C 69.0000 %
333 16-03-2020 20:00:00 11.1 C 69.0000 %
334 16-03-2020 21:00:00 11.13333 C 69.3333 %
335 16-03-2020 22:00:00 11.2 C 70.0000 %
336 16-03-2020 23:00:00 11.2 C 70.0000 %
337 17-03-2020 00:00:00 11.25 C 70.0000 %
338 17-03-2020 01:00:00 11.26667 C 70.0000 %
339 17-03-2020 02:00:00 11.26667 C 70.0000 %
340 17-03-2020 03:00:00 11.25 C 70.0000 %
341 17-03-2020 04:00:00 11.21667 C 70.0000 %
342 17-03-2020 05:00:00 11.2 C 70.0000 %
343 17-03-2020 06:00:00 11.2 C 70.5000 %
344 17-03-2020 07:00:00 11.2 C 71.0000 %
345 17-03-2020 08:00:00 11.2 C 71.0000 %
346 17-03-2020 09:00:00 11.2 C 71.0000 %
347 17-03-2020 10:00:00 11.28333 C 71.0000 %
348 17-03-2020 11:00:00 11.33333 C 71.0000 %
349 17-03-2020 12:00:00 11.41667 C 71.0000 %
350 17-03-2020 13:00:00 11.48333 C 71.0000 %
Sensor: Nr:Datum:Temp:Feuchte:
G-T/H 351 17-03-2020 14:00:00 11.56667 C 71.0000 %
352 17-03-2020 15:00:00 11.63333 C 71.0000 %
353 17-03-2020 16:00:00 11.71667 C 71.0000 %
354 17-03-2020 17:00:00 11.78333 C 71.0000 %
355 17-03-2020 18:00:00 11.8 C 71.0000 %
356 17-03-2020 19:00:00 11.8 C 71.0000 %
357 17-03-2020 20:00:00 11.85 C 71.0000 %
358 17-03-2020 21:00:00 11.8 C 71.0000 %
359 17-03-2020 22:00:00 11.8 C 71.0000 %
360 17-03-2020 23:00:00 11.8 C 71.0000 %
361 18-03-2020 00:00:00 11.73333 C 71.0000 %
362 18-03-2020 01:00:00 11.71667 C 70.8333 %
363 18-03-2020 02:00:00 11.63333 C 70.0000 %
364 18-03-2020 03:00:00 11.56667 C 70.0000 %
365 18-03-2020 04:00:00 11.46667 C 69.5000 %
366 18-03-2020 05:00:00 11.35 C 68.6667 %
367 18-03-2020 06:00:00 11.21667 C 68.0000 %
368 18-03-2020 07:00:00 11.11667 C 68.0000 %
369 18-03-2020 08:00:00 11.03333 C 68.1667 %
370 18-03-2020 09:00:00 11 C 69.0000 %
371 18-03-2020 10:00:00 11 C 69.5000 %
372 18-03-2020 11:00:00 11 C 70.0000 %
373 18-03-2020 12:00:00 11.06667 C 70.0000 %
374 18-03-2020 13:00:00 11.15 C 70.6667 %
375 18-03-2020 14:00:00 11.25 C 71.0000 %
Sensor: Nr:Datum:Temp:Feuchte:
G-T/H 376 18-03-2020 15:00:00 11.36667 C 71.0000 %
377 18-03-2020 16:00:00 11.46667 C 71.0000 %
378 18-03-2020 17:00:00 11.58333 C 71.0000 %
379 18-03-2020 18:00:00 11.66667 C 71.5000 %
380 18-03-2020 19:00:00 11.7 C 71.5000 %
381 18-03-2020 20:00:00 11.73333 C 72.0000 %
382 18-03-2020 21:00:00 11.8 C 72.0000 %
383 18-03-2020 22:00:00 11.8 C 72.0000 %
384 18-03-2020 23:00:00 11.8 C 72.0000 %
385 19-03-2020 00:00:00 11.83333 C 72.0000 %
386 19-03-2020 01:00:00 11.8 C 72.0000 %
387 19-03-2020 02:00:00 11.8 C 72.0000 %
388 19-03-2020 03:00:00 11.8 C 72.0000 %
389 19-03-2020 04:00:00 11.8 C 71.0000 %
390 19-03-2020 05:00:00 11.8 C 71.0000 %
391 19-03-2020 06:00:00 11.8 C 71.0000 %
392 19-03-2020 07:00:00 11.8 C 71.0000 %
393 19-03-2020 08:00:00 11.8 C 71.0000 %
394 19-03-2020 09:00:00 11.8 C 72.0000 %
395 19-03-2020 10:00:00 11.8 C 72.0000 %
396 19-03-2020 11:00:00 11.88333 C 72.0000 %
397 19-03-2020 12:00:00 11.9 C 72.0000 %
398 19-03-2020 13:00:00 12.01667 C 71.0000 %
399 19-03-2020 14:00:00 12.46667 C 68.8333 %
400 19-03-2020 15:00:00 13.33333 C 61.1667 %
Sensor: Nr:Datum:Temp:Feuchte:
G-T/H 401 19-03-2020 16:00:00 13.71667 C 57.8333 %
402 19-03-2020 17:00:00 13.81667 C 56.1667 %
403 19-03-2020 18:00:00 13.73333 C 58.5000 %
404 19-03-2020 19:00:00 13.03333 C 60.5000 %
405 19-03-2020 20:00:00 12.7 C 61.6667 %
406 19-03-2020 21:00:00 12.78333 C 63.1667 %
407 19-03-2020 22:00:00 12.8 C 64.1667 %
408 19-03-2020 23:00:00 12.8 C 65.0000 %
409 20-03-2020 00:00:00 12.8 C 66.0000 %
410 20-03-2020 01:00:00 12.8 C 66.0000 %
411 20-03-2020 02:00:00 12.78333 C 66.6667 %
412 20-03-2020 03:00:00 12.7 C 67.0000 %
413 20-03-2020 04:00:00 12.68333 C 67.0000 %
414 20-03-2020 05:00:00 12.6 C 67.0000 %
415 20-03-2020 06:00:00 12.5 C 67.0000 %
416 20-03-2020 07:00:00 12.45 C 67.0000 %
417 20-03-2020 08:00:00 12.4 C 67.0000 %
418 20-03-2020 09:00:00 12.38333 C 67.3333 %
419 20-03-2020 10:00:00 12.3 C 68.0000 %
420 20-03-2020 11:00:00 12.3 C 68.0000 %
421 20-03-2020 12:00:00 12.3 C 68.0000 %
422 20-03-2020 13:00:00 12.38333 C 68.6667 %
423 20-03-2020 14:00:00 12.4 C 69.0000 %
424 20-03-2020 15:00:00 12.45 C 69.0000 %
425 20-03-2020 16:00:00 12.5 C 69.0000 %
Sensor: Nr:Datum:Temp:Feuchte:
G-T/H 426 20-03-2020 17:00:00 12.71667 C 68.5000 %
427 20-03-2020 18:00:00 12.61667 C 68.0000 %
428 20-03-2020 19:00:00 12.6 C 68.0000 %
429 20-03-2020 20:00:00 12.6 C 68.0000 %
430 20-03-2020 21:00:00 12.56667 C 68.0000 %
431 20-03-2020 22:00:00 12.5 C 67.0000 %
432 20-03-2020 23:00:00 12.48333 C 66.8333 %
433 21-03-2020 00:00:00 12.43333 C 66.0000 %
434 21-03-2020 01:00:00 12.4 C 66.0000 %
435 21-03-2020 02:00:00 12.3 C 66.0000 %
436 21-03-2020 03:00:00 12.23333 C 66.0000 %
437 21-03-2020 04:00:00 12.15 C 66.0000 %
438 21-03-2020 05:00:00 12 C 65.1667 %
439 21-03-2020 06:00:00 11.91667 C 66.1667 %
440 21-03-2020 07:00:00 11.83333 C 66.5000 %
441 21-03-2020 08:00:00 11.7 C 66.6667 %
442 21-03-2020 09:00:00 11.66667 C 67.0000 %
443 21-03-2020 10:00:00 11.55 C 67.0000 %
444 21-03-2020 11:00:00 11.51667 C 67.0000 %
445 21-03-2020 12:00:00 11.5 C 66.1667 %
446 21-03-2020 13:00:00 11.38333 C 64.1667 %
447 21-03-2020 14:00:00 11.3 C 62.5000 %
448 21-03-2020 15:00:00 11.26667 C 61.3333 %
449 21-03-2020 16:00:00 11.2 C 60.1667 %
450 21-03-2020 17:00:00 11.2 C 60.6667 %
Sensor: Nr:Datum:Temp:Feuchte:
G-T/H 451 21-03-2020 18:00:00 11.13333 C 60.1667 %
452 21-03-2020 19:00:00 11.11667 C 61.0000 %
453 21-03-2020 20:00:00 11.03333 C 60.1667 %
454 21-03-2020 21:00:00 11 C 60.5000 %
455 21-03-2020 22:00:00 10.83333 C 61.1667 %
456 21-03-2020 23:00:00 10.75 C 60.3333 %
457 22-03-2020 00:00:00 10.58333 C 60.0000 %
458 22-03-2020 01:00:00 10.43333 C 59.0000 %
459 22-03-2020 02:00:00 10.28333 C 58.3333 %
460 22-03-2020 03:00:00 10.13333 C 58.0000 %
461 22-03-2020 04:00:00 10.01667 C 58.3333 %
462 22-03-2020 05:00:00 9.91667 C 60.0000 %
463 22-03-2020 06:00:00 9.81667 C 61.0000 %
464 22-03-2020 07:00:00 9.71667 C 61.0000 %
465 22-03-2020 08:00:00 9.6 C 61.0000 %
466 22-03-2020 09:00:00 9.5 C 61.3333 %
467 22-03-2020 10:00:00 9.4 C 61.3333 %
468 22-03-2020 11:00:00 9.33333 C 61.0000 %
469 22-03-2020 12:00:00 9.31667 C 61.0000 %
470 22-03-2020 13:00:00 9.3 C 61.0000 %
471 22-03-2020 14:00:00 9.3 C 61.0000 %
472 22-03-2020 15:00:00 9.38333 C 61.1667 %
473 22-03-2020 16:00:00 9.43333 C 62.0000 %
474 22-03-2020 17:00:00 9.48333 C 62.0000 %
475 22-03-2020 18:00:00 9.5 C 62.3333 %
Sensor: Nr:Datum:Temp:Feuchte:
G-T/H 476 22-03-2020 19:00:00 9.5 C 63.0000 %
477 22-03-2020 20:00:00 9.5 C 63.8333 %
478 22-03-2020 21:00:00 9.5 C 64.0000 %
479 22-03-2020 22:00:00 9.5 C 64.0000 %
480 22-03-2020 23:00:00 9.41667 C 63.8333 %
481 23-03-2020 00:00:00 9.36667 C 63.0000 %
482 23-03-2020 01:00:00 9.26667 C 63.0000 %
483 23-03-2020 02:00:00 9.16667 C 63.0000 %
484 23-03-2020 03:00:00 9.08333 C 62.8333 %
485 23-03-2020 04:00:00 8.98333 C 62.1667 %
486 23-03-2020 05:00:00 8.86667 C 63.0000 %
487 23-03-2020 06:00:00 8.75 C 63.0000 %
488 23-03-2020 07:00:00 8.61667 C 62.0000 %
489 23-03-2020 08:00:00 8.51667 C 62.0000 %
490 23-03-2020 09:00:00 8.45 C 62.0000 %
491 23-03-2020 10:00:00 8.4 C 62.0000 %
492 23-03-2020 11:00:00 8.4 C 62.0000 %
493 23-03-2020 12:00:00 8.4 C 62.0000 %
494 23-03-2020 13:00:00 8.4 C 62.0000 %
495 23-03-2020 14:00:00 8.4 C 62.3333 %
496 23-03-2020 15:00:00 8.45 C 63.0000 %
497 23-03-2020 16:00:00 8.51667 C 63.0000 %
498 23-03-2020 17:00:00 8.56667 C 63.0000 %
499 23-03-2020 18:00:00 8.6 C 63.8333 %
500 23-03-2020 19:00:00 8.6 C 64.0000 %
Sensor: Nr:Datum:Temp:Feuchte:
G-T/H 501 23-03-2020 20:00:00 8.6 C 64.0000 %
502 23-03-2020 21:00:00 8.6 C 64.0000 %
503 23-03-2020 22:00:00 8.6 C 64.0000 %
504 23-03-2020 23:00:00 8.58333 C 64.0000 %
505 24-03-2020 00:00:00 8.5 C 64.0000 %
506 24-03-2020 01:00:00 8.43333 C 64.0000 %
507 24-03-2020 02:00:00 8.36667 C 63.1667 %
508 24-03-2020 03:00:00 8.26667 C 63.0000 %
509 24-03-2020 04:00:00 8.15 C 63.0000 %
510 24-03-2020 05:00:00 8.06667 C 63.0000 %
511 24-03-2020 06:00:00 7.96667 C 62.6667 %
512 24-03-2020 07:00:00 7.88333 C 63.0000 %
513 24-03-2020 08:00:00 7.8 C 63.0000 %
514 24-03-2020 09:00:00 7.8 C 63.0000 %
515 24-03-2020 10:00:00 7.75 C 64.0000 %
516 24-03-2020 11:00:00 7.71667 C 64.0000 %
517 24-03-2020 12:00:00 7.75 C 64.0000 %
518 24-03-2020 13:00:00 7.8 C 64.3333 %
519 24-03-2020 14:00:00 7.83333 C 64.5000 %
520 24-03-2020 15:00:00 7.88333 C 64.0000 %
521 24-03-2020 16:00:00 7.9 C 64.0000 %
522 24-03-2020 17:00:00 8.01667 C 63.5000 %
523 24-03-2020 18:00:00 8.11667 C 64.3333 %
524 24-03-2020 19:00:00 8.16667 C 65.0000 %
525 24-03-2020 20:00:00 8.2 C 65.0000 %
Sensor: Nr:Datum:Temp:Feuchte:
G-T/H 526 24-03-2020 21:00:00 8.2 C 65.0000 %
527 24-03-2020 22:00:00 8.2 C 65.0000 %
528 24-03-2020 23:00:00 8.2 C 64.1667 %
529 25-03-2020 00:00:00 8.13333 C 64.0000 %
530 25-03-2020 01:00:00 8.1 C 64.0000 %
531 25-03-2020 02:00:00 8.01667 C 63.8333 %
532 25-03-2020 03:00:00 7.95 C 63.5000 %
533 25-03-2020 04:00:00 7.86667 C 64.0000 %
534 25-03-2020 05:00:00 7.78333 C 64.0000 %
535 25-03-2020 06:00:00 7.68333 C 63.8333 %
536 25-03-2020 07:00:00 7.6 C 63.0000 %
537 25-03-2020 08:00:00 7.53333 C 63.0000 %
538 25-03-2020 09:00:00 7.5 C 63.6667 %
539 25-03-2020 10:00:00 7.43333 C 64.0000 %
540 25-03-2020 11:00:00 7.43333 C 64.0000 %
541 25-03-2020 12:00:00 7.46667 C 64.0000 %
542 25-03-2020 13:00:00 7.5 C 64.0000 %
543 25-03-2020 14:00:00 7.6 C 63.8333 %
544 25-03-2020 15:00:00 7.66667 C 62.0000 %
545 25-03-2020 16:00:00 7.76667 C 62.0000 %
546 25-03-2020 17:00:00 7.86667 C 62.0000 %
547 25-03-2020 18:00:00 7.96667 C 62.0000 %
548 25-03-2020 19:00:00 8 C 62.8333 %
549 25-03-2020 20:00:00 8.1 C 63.8333 %
550 25-03-2020 21:00:00 8.1 C 64.0000 %
Sensor: Nr:Datum:Temp:Feuchte:
G-T/H 551 25-03-2020 22:00:00 8.13333 C 64.0000 %
552 25-03-2020 23:00:00 8.2 C 64.0000 %
553 26-03-2020 00:00:00 8.11667 C 64.0000 %
554 26-03-2020 01:00:00 8.1 C 64.0000 %
555 26-03-2020 02:00:00 8.1 C 63.8333 %
556 26-03-2020 03:00:00 8.01667 C 63.0000 %
557 26-03-2020 04:00:00 8 C 63.0000 %
558 26-03-2020 05:00:00 7.9 C 64.0000 %
559 26-03-2020 06:00:00 7.81667 C 64.0000 %
560 26-03-2020 07:00:00 7.75 C 64.0000 %
561 26-03-2020 08:00:00 7.7 C 64.0000 %
562 26-03-2020 09:00:00 7.68333 C 64.0000 %
563 26-03-2020 10:00:00 7.66667 C 64.0000 %
564 26-03-2020 11:00:00 7.61667 C 64.0000 %
565 26-03-2020 12:00:00 7.68333 C 64.0000 %
566 26-03-2020 13:00:00 7.76667 C 63.1667 %
567 26-03-2020 14:00:00 7.85 C 63.3333 %
568 26-03-2020 15:00:00 7.96667 C 63.3333 %
569 26-03-2020 16:00:00 8.08333 C 63.3333 %
570 26-03-2020 17:00:00 8.21667 C 63.5000 %
571 26-03-2020 18:00:00 8.33333 C 63.5000 %
572 26-03-2020 19:00:00 8.4 C 64.3333 %
573 26-03-2020 20:00:00 8.48333 C 65.0000 %
574 26-03-2020 21:00:00 8.51667 C 65.1667 %
575 26-03-2020 22:00:00 8.6 C 66.0000 %
Sensor: Nr:Datum:Temp:Feuchte:
G-T/H 576 26-03-2020 23:00:00 8.6 C 66.0000 %
577 27-03-2020 00:00:00 8.6 C 66.0000 %
578 27-03-2020 01:00:00 8.6 C 66.0000 %
579 27-03-2020 02:00:00 8.58333 C 66.0000 %
580 27-03-2020 03:00:00 8.55 C 66.0000 %
581 27-03-2020 04:00:00 8.5 C 66.0000 %
582 27-03-2020 05:00:00 8.48333 C 66.0000 %
583 27-03-2020 06:00:00 8.41667 C 66.0000 %
584 27-03-2020 07:00:00 8.36667 C 65.6667 %
585 27-03-2020 08:00:00 8.3 C 66.0000 %
586 27-03-2020 09:00:00 8.26667 C 66.0000 %
587 27-03-2020 10:00:00 8.26667 C 66.1667 %
588 27-03-2020 11:00:00 8.3 C 67.0000 %
589 27-03-2020 12:00:00 8.38333 C 67.0000 %
590 27-03-2020 13:00:00 8.53333 C 67.0000 %
591 27-03-2020 14:00:00 8.75 C 67.0000 %
592 27-03-2020 15:00:00 9.7 C 60.3333 %
593 27-03-2020 16:00:00 10.65 C 52.5000 %
594 27-03-2020 17:00:00 11.2 C 49.1667 %
595 27-03-2020 18:00:00 11.38333 C 49.3333 %
596 27-03-2020 19:00:00 10.9 C 52.5000 %
597 27-03-2020 20:00:00 10.46667 C 53.3333 %
598 27-03-2020 21:00:00 10.03333 C 54.0000 %
599 27-03-2020 22:00:00 9.58333 C 54.1667 %
600 27-03-2020 23:00:00 9.91667 C 55.8333 %
Sensor: Nr:Datum:Temp:Feuchte:
G-T/H 601 28-03-2020 00:00:00 10.03333 C 57.6667 %
602 28-03-2020 01:00:00 10.1 C 59.1667 %
603 28-03-2020 02:00:00 10.05 C 60.0000 %
604 28-03-2020 03:00:00 10 C 60.5000 %
605 28-03-2020 04:00:00 10 C 61.0000 %
606 28-03-2020 05:00:00 9.86667 C 62.0000 %
607 28-03-2020 06:00:00 9.8 C 62.0000 %
608 28-03-2020 07:00:00 9.73333 C 62.0000 %
609 28-03-2020 08:00:00 9.68333 C 62.8333 %
610 28-03-2020 09:00:00 9.61667 C 63.0000 %
611 28-03-2020 10:00:00 9.6 C 63.6667 %
612 28-03-2020 11:00:00 9.6 C 64.0000 %
613 28-03-2020 12:00:00 9.78333 C 64.0000 %
614 28-03-2020 13:00:00 10.65 C 60.3333 %
615 28-03-2020 14:00:00 11.88333 C 53.6667 %
616 28-03-2020 15:00:00 12.16667 C 50.0000 %
617 28-03-2020 16:00:00 11.5 C 53.3333 %
618 28-03-2020 17:00:00 11.23333 C 56.5000 %
619 28-03-2020 18:00:00 11.15 C 57.6667 %
620 28-03-2020 19:00:00 11.1 C 58.1667 %
621 28-03-2020 20:00:00 11.06667 C 59.0000 %
622 28-03-2020 21:00:00 11.01667 C 60.0000 %
623 28-03-2020 22:00:00 11 C 60.6667 %
624 28-03-2020 23:00:00 10.95 C 61.5000 %
625 29-03-2020 00:00:00 10.9 C 62.0000 %
Sensor: Nr:Datum:Temp:Feuchte:
G-T/H 626 29-03-2020 01:00:00 10.83333 C 62.0000 %
627 29-03-2020 02:00:00 10.76667 C 62.0000 %
628 29-03-2020 04:00:00 10.65 C 61.3333 %
629 29-03-2020 05:00:00 10.51667 C 60.1667 %
630 29-03-2020 06:00:00 10.45 C 60.0000 %
631 29-03-2020 07:00:00 10.38333 C 60.3333 %
632 29-03-2020 08:00:00 10.25 C 60.3333 %
633 29-03-2020 09:00:00 10.2 C 60.0000 %
634 29-03-2020 10:00:00 10.1 C 60.0000 %
635 29-03-2020 11:00:00 10.03333 C 60.0000 %
636 29-03-2020 12:00:00 10 C 59.8333 %
637 29-03-2020 13:00:00 9.91667 C 59.8333 %
638 29-03-2020 14:00:00 9.9 C 60.0000 %
639 29-03-2020 15:00:00 9.9 C 60.0000 %
640 29-03-2020 16:00:00 9.9 C 60.0000 %
641 29-03-2020 17:00:00 9.9 C 60.0000 %
642 29-03-2020 18:00:00 9.9 C 60.0000 %
643 29-03-2020 19:00:00 9.9 C 60.0000 %
644 29-03-2020 20:00:00 9.8 C 60.8333 %
645 29-03-2020 21:00:00 9.8 C 61.3333 %
646 29-03-2020 22:00:00 9.75 C 61.3333 %
647 29-03-2020 23:00:00 9.66667 C 61.0000 %
648 30-03-2020 00:00:00 9.58333 C 60.1667 %
649 30-03-2020 01:00:00 9.48333 C 60.8333 %
650 30-03-2020 02:00:00 9.36667 C 61.0000 %
Sensor: Nr:Datum:Temp:Feuchte:
G-T/H 651 30-03-2020 03:00:00 9.26667 C 61.0000 %
652 30-03-2020 04:00:00 9.15 C 60.3333 %
653 30-03-2020 05:00:00 9 C 60.0000 %
654 30-03-2020 06:00:00 8.86667 C 61.0000 %
655 30-03-2020 07:00:00 8.7 C 60.5000 %
656 30-03-2020 08:00:00 8.55 C 60.0000 %
657 30-03-2020 09:00:00 8.46667 C 60.0000 %
658 30-03-2020 10:00:00 8.33333 C 60.0000 %
659 30-03-2020 11:00:00 8.23333 C 60.0000 %
660 30-03-2020 12:00:00 8.2 C 60.0000 %
661 30-03-2020 13:00:00 8.03333 C 53.8333 %
662 30-03-2020 14:00:00 8.08333 C 53.8333 %
663 30-03-2020 15:00:00 8.16667 C 56.3333 %
664 30-03-2020 16:00:00 8.28333 C 57.5000 %
665 30-03-2020 17:00:00 8.36667 C 58.0000 %
666 30-03-2020 18:00:00 8.41667 C 59.0000 %
667 30-03-2020 19:00:00 8.48333 C 60.0000 %
668 30-03-2020 20:00:00 8.5 C 60.6667 %
669 30-03-2020 21:00:00 8.5 C 61.0000 %
670 30-03-2020 22:00:00 8.5 C 62.0000 %
671 30-03-2020 23:00:00 8.51667 C 62.0000 %
672 31-03-2020 00:00:00 8.51667 C 62.5000 %
673 31-03-2020 01:00:00 8.53333 C 63.0000 %
674 31-03-2020 02:00:00 8.5 C 63.0000 %
675 31-03-2020 03:00:00 8.5 C 64.0000 %
Sensor: Nr:Datum:Temp:Feuchte:
G-T/H 676 31-03-2020 04:00:00 8.5 C 64.0000 %
677 31-03-2020 05:00:00 8.5 C 64.0000 %
678 31-03-2020 06:00:00 8.46667 C 64.0000 %
679 31-03-2020 07:00:00 8.41667 C 64.3333 %
680 31-03-2020 08:00:00 8.4 C 65.0000 %
681 31-03-2020 09:00:00 8.4 C 65.0000 %
682 31-03-2020 10:00:00 8.4 C 64.6667 %
683 31-03-2020 11:00:00 8.4 C 64.0000 %
684 31-03-2020 12:00:00 8.43333 C 64.0000 %
685 31-03-2020 13:00:00 8.48333 C 63.3333 %
686 31-03-2020 14:00:00 8.51667 C 63.0000 %
687 31-03-2020 15:00:00 8.6 C 63.0000 %
688 31-03-2020 16:00:00 8.65 C 63.0000 %
689 31-03-2020 17:00:00 8.75 C 62.8333 %
690 31-03-2020 18:00:00 8.8 C 56.6667 %
691 31-03-2020 19:00:00 8.86667 C 58.5000 %
692 31-03-2020 20:00:00 8.9 C 60.5000 %
693 31-03-2020 21:00:00 8.88333 C 61.3333 %
694 31-03-2020 22:00:00 8.81667 C 62.0000 %
695 31-03-2020 23:00:00 8.8 C 62.0000 %

Maximal/Minimal-Werte vom 03.03.2020 - 31.03.2020

Sensor Min Max Avg
Temp
(Aussen-T/F)
-4.7 °C
24-03-2020  06:00:17
25.8 °C
19-03-2020  13:19:18
7.3 °C
Feuchte
(Aussen-T/F)
20 %
07-03-2020  14:18:17
50 %
14-03-2020  05:39:18
33.2 %
Temp
(G-T/H)
7.4 °C
25-03-2020  10:00:18
13.9 °C
19-03-2020  16:59:17
10.1 °C
Feuchte
(G-T/H)
48 %
27-03-2020  17:50:18
77 %
11-03-2020  13:29:17
67.89 %

Die Daten stammen von einer Davis Vantage Pro 2 Wetter-Station und werden unter Linux mit der Software wview2wettercgi und aufbereitet. Alle Angaben erfolgen ohne Gewähr für ihre Vollständigkeit oder Richtigkeit.
Kontakt: Rainer Krienke krienke@uni-koblenz.de . Meine Webseiten an der Uni Koblenz oder privat.
Version: $Revision: 0.78 $